Data for 03/25/2011

Time Sea-Level Adjusted Pressure Absolute Pressure Temperature Relative Humidity Dew Point Precipitation   
(mb) (inHg) (mb) (inHg) (C) (F) (%) (C) (F) (mm) (in)
00:01 1009 29.8 839 24.78 -2 28.4 79 -5.1 22.7 -1.619 -0.064
00:02 1009 29.8 839 24.78 -2.1 28.3 79 -5.2 22.7 -1.63 -0.064
00:03 1009 29.8 839 24.78 -2.1 28.3 79 -5.2 22.7 -1.653 -0.065
00:04 1009 29.8 839 24.78 -2 28.3 79 -5.1 22.8 -1.619 -0.064
00:05 1009 29.8 839 24.78 -2 28.4 79 -5.1 22.8 -1.619 -0.064
00:06 1009 29.8 839 24.78 -2 28.3 79 -5.1 22.7 -1.625 -0.064
00:07 1009 29.8 839 24.78 -2 28.4 79 -5.1 22.8 -1.574 -0.062
00:08 1009 29.8 839 24.78 -2 28.5 79 -5.1 22.8 -1.54 -0.061
00:09 1009 29.8 839 24.78 -2 28.5 79 -5.2 22.7 -1.506 -0.059
00:10 1009 29.8 839 24.78 -1.9 28.5 79 -5.2 22.7 -1.506 -0.059
00:11 1009 29.8 838 24.75 -1.9 28.6 78 -5.2 22.7 -1.466 -0.058
00:12 1009 29.8 839 24.78 -1.9 28.6 78 -5.1 22.7 -1.483 -0.058
00:13 1009 29.8 839 24.78 -1.9 28.6 78 -5.2 22.7 -1.483 -0.058
00:14 1009 29.8 839 24.78 -1.9 28.7 78 -5.1 22.8 -1.426 -0.056
00:15 1009 29.8 839 24.78 -1.8 28.7 78 -5.1 22.7 -1.415 -0.056
00:16 1009 29.8 839 24.78 -1.8 28.7 78 -5.1 22.8 -1.415 -0.056
00:17 1009 29.8 839 24.78 -1.8 28.7 78 -5.2 22.7 -1.353 -0.053
00:18 1009 29.8 839 24.78 -1.8 28.7 78 -5.1 22.8 -1.398 -0.055
00:19 1009 29.8 839 24.78 -1.9 28.6 78 -5.1 22.8 -1.438 -0.057
00:20 1009 29.8 839 24.78 -1.9 28.5 78 -5.2 22.6 -1.477 -0.058
00:21 1009 29.8 839 24.78 -1.9 28.7 78 -5.2 22.7 -1.438 -0.057
00:22 1009 29.8 838 24.75 -1.9 28.6 78 -5.2 22.7 -1.432 -0.056
00:23 1009 29.8 838 24.75 -1.8 28.7 78 -5.2 22.7 -1.392 -0.055
00:24 1009 29.8 839 24.78 -1.9 28.7 78 -5.2 22.7 -1.438 -0.057
00:25 1009 29.8 839 24.78 -1.9 28.7 78 -5.1 22.8 -1.472 -0.058
00:26 1009 29.8 838 24.75 -1.9 28.6 78 -5.2 22.7 -1.466 -0.058
00:27 1009 29.8 839 24.78 -1.9 28.5 79 -5.1 22.7 -1.534 -0.06
00:28 1009 29.8 839 24.78 -2 28.5 79 -5.2 22.7 -1.562 -0.061
00:29 1009 29.8 838 24.75 -2 28.3 79 -5.2 22.6 -1.591 -0.063
00:30 1009 29.8 838 24.75 -2 28.4 79 -5.2 22.7 -1.63 -0.064
00:31 1009 29.8 838 24.75 -2.1 28.3 79 -5.2 22.6 -1.647 -0.065
00:32 1009 29.8 838 24.75 -2.1 28.3 79 -5.2 22.6 -1.664 -0.066
00:33 1009 29.8 838 24.75 -2.1 28.2 79 -5.2 22.6 -1.664 -0.066
00:34 1009 29.8 838 24.75 -2.1 28.2 79 -5.2 22.6 -1.647 -0.065
00:35 1009 29.8 838 24.75 -2.1 28.2 79 -5.2 22.7 -1.71 -0.067
00:36 1009 29.8 839 24.78 -2.1 28.2 79 -5.2 22.6 -1.732 -0.068
00:37 1009 29.8 838 24.75 -2.1 28.2 80 -5.2 22.7 -1.691 -0.067
00:38 1009 29.8 838 24.75 -2.1 28.2 80 -5.2 22.6 -1.725 -0.068
00:39 1009 29.8 838 24.75 -2.2 28.1 80 -5.2 22.6 -1.747 -0.069
00:40 1009 29.8 838 24.75 -2.2 28.1 80 -5.2 22.6 -1.719 -0.068
00:41 1009 29.8 838 24.75 -2.2 28 80 -5.2 22.6 -1.775 -0.07
00:42 1009 29.8 839 24.78 -2.2 28 80 -5.3 22.5 -1.815 -0.071
00:43 1009 29.8 839 24.78 -2.2 28 80 -5.2 22.6 -1.793 -0.071
00:44 1009 29.8 839 24.78 -2.2 28.1 80 -5.3 22.5 -1.804 -0.071
00:45 1009 29.8 839 24.78 -2.2 28.1 79 -5.3 22.5 -1.77 -0.07
00:46 1009 29.8 839 24.78 -2.1 28.1 79 -5.2 22.6 -1.725 -0.068
00:47 1009 29.8 839 24.78 -2.2 28.1 79 -5.3 22.5 -1.788 -0.07
00:48 1009 29.8 839 24.78 -2.2 28 80 -5.3 22.5 -1.792 -0.071
00:49 1009 29.8 839 24.78 -2.3 27.9 80 -5.3 22.5 -1.804 -0.071
00:50 1009 29.8 839 24.78 -2.2 28 80 -5.3 22.5 -1.821 -0.072
00:51 1009 29.8 839 24.78 -2.2 28 80 -5.3 22.5 -1.832 -0.072
00:52 1009 29.8 839 24.78 -2.3 27.9 80 -5.3 22.5 -1.866 -0.073
00:53 1009 29.8 839 24.78 -2.3 27.9 80 -5.3 22.5 -1.849 -0.073
00:54 1009 29.8 839 24.78 -2.3 27.9 80 -5.3 22.4 -1.826 -0.072
00:55 1009 29.8 839 24.78 -2.3 27.9 80 -5.3 22.5 -1.848 -0.073
00:56 1009 29.8 839 24.78 -2.3 27.9 80 -5.3 22.5 -1.865 -0.073
00:57 1009 29.8 839 24.78 -2.3 27.8 80 -5.3 22.4 -1.831 -0.072
00:58 1009 29.8 839 24.78 -2.2 28 80 -5.3 22.5 -1.836 -0.072
00:59 1009 29.8 839 24.78 -2.3 28 80 -5.3 22.5 -1.836 -0.072
01:00 1009 29.8 839 24.78 -2.3 27.9 80 -5.3 22.4 -1.859 -0.073
01:01 1009 29.8 839 24.78 -2.3 27.9 80 -5.3 22.5 -1.864 -0.073
01:02 1009 29.8 839 24.78 -2.3 27.9 80 -5.3 22.5 -1.887 -0.074
01:03 1009 29.8 839 24.78 -2.3 27.8 80 -5.3 22.4 -1.909 -0.075
01:04 1009 29.8 839 24.78 -2.4 27.8 81 -5.3 22.5 -1.949 -0.077
01:05 1009 29.8 839 24.78 -2.4 27.7 81 -5.3 22.4 -1.988 -0.078
01:06 1009 29.8 839 24.78 -2.4 27.7 80 -5.3 22.4 -1.994 -0.079
01:07 1009 29.8 839 24.78 -2.4 27.7 80 -5.3 22.5 -1.96 -0.077
01:08 1009 29.8 839 24.78 -2.4 27.7 81 -5.3 22.5 -1.937 -0.076
01:09 1009 29.8 839 24.78 -2.4 27.7 81 -5.3 22.4 -1.988 -0.078
01:10 1009 29.8 839 24.78 -2.4 27.7 81 -5.3 22.5 -1.976 -0.078
01:11 1009 29.8 839 24.78 -2.4 27.7 81 -5.3 22.5 -1.954 -0.077
01:12 1009 29.8 839 24.78 -2.3 27.8 80 -5.3 22.5 -1.936 -0.076
01:13 1009 29.8 839 24.78 -2.4 27.8 80 -5.3 22.4 -1.925 -0.076
01:14 1009 29.8 839 24.78 -2.3 27.8 80 -5.3 22.4 -1.914 -0.075
01:15 1009 29.8 839 24.78 -2.3 27.8 80 -5.3 22.5 -1.953 -0.077
01:16 1009 29.8 839 24.78 -2.4 27.7 80 -5.4 22.4 -1.942 -0.076
01:17 1009 29.8 839 24.78 -2.4 27.7 80 -5.3 22.4 -1.953 -0.077
01:18 1009 29.8 839 24.78 -2.4 27.6 80 -5.4 22.4 -2.004 -0.079
01:19 1009 29.8 839 24.78 -2.5 27.6 80 -5.4 22.3 -2.027 -0.08
01:20 1009 29.8 839 24.78 -2.4 27.6 81 -5.3 22.4 -2.027 -0.08
01:21 1009 29.8 838 24.75 -2.5 27.6 81 -5.4 22.3 -2.049 -0.081
01:22 1009 29.8 839 24.78 -2.5 27.5 81 -5.4 22.4 -2.083 -0.082
01:23 1009 29.8 839 24.78 -2.5 27.5 81 -5.4 22.4 -2.095 -0.082
01:24 1009 29.8 839 24.78 -2.5 27.5 81 -5.4 22.4 -2.049 -0.081
01:25 1009 29.8 839 24.78 -2.4 27.6 80 -5.4 22.3 -2.061 -0.081
01:26 1009 29.8 839 24.78 -2.5 27.6 81 -5.4 22.4 -2.049 -0.081
01:27 1009 29.8 839 24.78 -2.5 27.6 81 -5.4 22.3 -2.055 -0.081
01:28 1009 29.8 839 24.78 -2.4 27.7 80 -5.4 22.3 -2.004 -0.079
01:29 1009 29.8 839 24.78 -2.4 27.7 80 -5.4 22.3 -1.992 -0.078
01:30 1009 29.8 839 24.78 -2.3 27.8 80 -5.4 22.3 -1.953 -0.077
01:31 1009 29.8 839 24.78 -2.4 27.8 80 -5.4 22.3 -1.941 -0.076
01:32 1009 29.8 839 24.78 -2.3 27.8 79 -5.4 22.2 -1.93 -0.076
01:33 1009 29.8 839 24.78 -2.3 27.8 79 -5.4 22.2 -1.885 -0.074
01:34 1009 29.8 839 24.78 -2.3 27.9 79 -5.4 22.3 -1.868 -0.074
01:35 1009 29.8 839 24.78 -2.3 27.9 80 -5.4 22.4 -1.919 -0.076
01:36 1009 29.8 839 24.78 -2.4 27.8 79 -5.4 22.2 -1.924 -0.076
01:37 1009 29.8 839 24.78 -2.3 27.8 79 -5.4 22.2 -1.896 -0.075
01:38 1009 29.8 839 24.78 -2.3 27.8 79 -5.5 22.2 -1.885 -0.074
01:39 1009 29.8 839 24.78 -2.3 27.9 79 -5.4 22.3 -1.896 -0.075
01:40 1009 29.8 839 24.78 -2.3 27.8 79 -5.4 22.2 -1.896 -0.075
01:41 1009 29.8 839 24.78 -2.3 27.8 79 -5.4 22.2 -1.947 -0.077
01:42 1009 29.8 839 24.78 -2.3 27.8 80 -5.4 22.3 -1.936 -0.076
01:43 1009 29.8 839 24.78 -2.4 27.7 80 -5.4 22.2 -1.97 -0.078
01:44 1009 29.8 839 24.78 -2.4 27.7 79 -5.5 22.1 -1.93 -0.076
01:45 1009 29.8 839 24.78 -2.4 27.7 79 -5.5 22.1 -1.953 -0.077
01:46 1009 29.8 839 24.78 -2.4 27.7 80 -5.4 22.2 -1.992 -0.078
01:47 1009 29.8 839 24.78 -2.4 27.7 80 -5.5 22.2 -2.015 -0.079
01:48 1009 29.8 839 24.78 -2.4 27.7 79 -5.5 22.1 -1.981 -0.078
01:49 1009 29.8 839 24.78 -2.4 27.7 79 -5.5 22.1 -1.981 -0.078
01:50 1009 29.8 839 24.78 -2.3 27.8 79 -5.5 22.1 -1.919 -0.076
01:51 1009 29.8 839 24.78 -2.4 27.7 79 -5.5 22.1 -1.953 -0.077
01:52 1009 29.8 839 24.78 -2.4 27.8 79 -5.5 22.1 -1.947 -0.077
01:53 1009 29.8 839 24.78 -2.4 27.7 79 -5.5 22.1 -1.947 -0.077
01:54 1009 29.8 839 24.78 -2.4 27.7 79 -5.5 22.1 -1.953 -0.077
01:55 1010 29.83 839 24.78 -2.4 27.7 79 -5.5 22.1 -1.975 -0.078
01:56 1009 29.8 839 24.78 -2.4 27.8 79 -5.5 22.1 -1.992 -0.078
01:57 1009 29.8 839 24.78 -2.4 27.7 79 -5.5 22 -1.936 -0.076
01:58 1009 29.8 839 24.78 -2.4 27.6 79 -5.6 22 -1.992 -0.078
01:59 1009 29.8 839 24.78 -2.4 27.6 79 -5.5 22 -2.038 -0.08
02:00 1009 29.8 839 24.78 -2.4 27.6 79 -5.5 22 -2.049 -0.081
02:01 1009 29.8 839 24.78 -2.5 27.6 79 -5.6 22 -2.055 -0.081
02:02 1009 29.8 839 24.78 -2.5 27.6 79 -5.6 21.9 -2.021 -0.08
02:03 1009 29.8 839 24.78 -2.5 27.6 79 -5.6 22 -2.049 -0.081
02:04 1009 29.8 839 24.78 -2.5 27.6 79 -5.6 22 -2.049 -0.081
02:05 1009 29.8 839 24.78 -2.5 27.5 80 -5.6 22 -2.111 -0.083
02:06 1009 29.8 839 24.78 -2.5 27.5 80 -5.6 22 -2.123 -0.084
02:07 1009 29.8 839 24.78 -2.5 27.5 79 -5.6 21.9 -2.122 -0.084
02:08 1009 29.8 839 24.78 -2.5 27.5 79 -5.6 21.9 -2.121 -0.084
02:09 1009 29.8 839 24.78 -2.5 27.4 79 -5.6 21.9 -2.127 -0.084
02:10 1009 29.8 839 24.78 -2.5 27.5 79 -5.6 21.9 -2.116 -0.083
02:11 1009 29.8 839 24.78 -2.5 27.4 80 -5.6 21.9 -2.178 -0.086
02:12 1009 29.8 839 24.78 -2.6 27.3 80 -5.6 21.8 -2.189 -0.086
02:13 1009 29.8 839 24.78 -2.6 27.4 79 -5.6 21.8 -2.173 -0.086
02:14 1009 29.8 839 24.78 -2.6 27.3 79 -5.7 21.7 -2.167 -0.085
02:15 1009 29.8 839 24.78 -2.6 27.4 80 -5.6 21.8 -2.184 -0.086
02:16 1009 29.8 839 24.78 -2.6 27.3 80 -5.7 21.8 -2.162 -0.085
02:17 1009 29.8 839 24.78 -2.6 27.3 80 -5.7 21.8 -2.196 -0.086
02:18 1009 29.8 839 24.78 -2.6 27.3 80 -5.7 21.8 -2.224 -0.088
02:19 1009 29.8 839 24.78 -2.6 27.3 79 -5.7 21.7 -2.19 -0.086
02:20 1009 29.8 839 24.78 -2.6 27.3 79 -5.7 21.7 -2.184 -0.086
02:21 1009 29.8 839 24.78 -2.6 27.3 79 -5.7 21.8 -2.179 -0.086
02:22 1009 29.8 839 24.78 -2.6 27.3 80 -5.7 21.8 -2.196 -0.086
02:23 1009 29.8 839 24.78 -2.6 27.3 79 -5.7 21.7 -2.201 -0.087
02:24 1009 29.8 839 24.78 -2.6 27.2 80 -5.7 21.7 -2.196 -0.086
02:25 1009 29.8 839 24.78 -2.7 27.2 80 -5.7 21.8 -2.264 -0.089
02:26 1009 29.8 839 24.78 -2.7 27.2 80 -5.7 21.7 -2.253 -0.089
02:27 1009 29.8 839 24.78 -2.6 27.2 80 -5.7 21.8 -2.264 -0.089
02:28 1009 29.8 839 24.78 -2.7 27.2 80 -5.7 21.8 -2.253 -0.089
02:29 1009 29.8 839 24.78 -2.7 27.1 80 -5.7 21.7 -2.264 -0.089
02:30 1009 29.8 839 24.78 -2.7 27.2 80 -5.7 21.7 -2.23 -0.088
02:31 1009 29.8 839 24.78 -2.7 27.2 79 -5.8 21.6 -2.196 -0.086
02:32 1009 29.8 839 24.78 -2.6 27.3 79 -5.7 21.7 -2.219 -0.087
02:33 1009 29.8 839 24.78 -2.6 27.3 79 -5.8 21.6 -2.19 -0.086
02:34 1009 29.8 839 24.78 -2.6 27.3 79 -5.7 21.7 -2.202 -0.087
02:35 1009 29.8 839 24.78 -2.6 27.3 79 -5.7 21.7 -2.185 -0.086
02:36 1009 29.8 839 24.78 -2.6 27.3 79 -5.7 21.7 -2.19 -0.086
02:37 1009 29.8 839 24.78 -2.6 27.3 79 -5.8 21.6 -2.161 -0.085
02:38 1009 29.8 839 24.78 -2.6 27.2 79 -5.7 21.7 -2.246 -0.088
02:39 1009 29.8 839 24.78 -2.7 27.1 80 -5.7 21.7 -2.319 -0.091
02:40 1009 29.8 839 24.78 -2.7 27.1 79 -5.8 21.5 -2.313 -0.091
02:41 1009 29.8 839 24.78 -2.8 26.9 80 -5.8 21.6 -2.392 -0.094
02:42 1009 29.8 839 24.78 -2.8 27 80 -5.8 21.5 -2.375 -0.094
02:43 1009 29.8 839 24.78 -2.7 27.1 80 -5.8 21.6 -2.301 -0.091
02:44 1009 29.8 839 24.78 -2.7 27.1 80 -5.8 21.6 -2.295 -0.09
02:45 1009 29.8 839 24.78 -2.7 27.1 79 -5.8 21.5 -2.283 -0.09
02:46 1009 29.8 839 24.78 -2.7 27.2 79 -5.7 21.7 -2.277 -0.09
02:47 1009 29.8 839 24.78 -2.7 27.2 79 -5.8 21.6 -2.294 -0.09
02:48 1009 29.8 839 24.78 -2.7 27.2 79 -5.8 21.6 -2.243 -0.088
02:49 1009 29.8 839 24.78 -2.6 27.2 79 -5.8 21.5 -2.226 -0.088
02:50 1009 29.8 839 24.78 -2.6 27.3 79 -5.8 21.6 -2.282 -0.09
02:51 1009 29.8 839 24.78 -2.7 27.2 79 -5.8 21.6 -2.305 -0.091
02:52 1009 29.8 839 24.78 -2.7 27.1 79 -5.8 21.5 -2.254 -0.089
02:53 1009 29.8 839 24.78 -2.7 27.1 79 -5.9 21.5 -2.276 -0.09
02:54 1009 29.8 839 24.78 -2.8 27 79 -5.8 21.5 -2.344 -0.092
02:55 1009 29.8 839 24.78 -2.8 27 80 -5.8 21.5 -2.378 -0.094
02:56 1009 29.8 839 24.78 -2.8 26.9 80 -5.8 21.5 -2.423 -0.095
02:57 1009 29.8 839 24.78 -2.8 26.9 80 -5.8 21.5 -2.435 -0.096
02:58 1009 29.8 839 24.78 -2.8 26.9 80 -5.8 21.5 -2.423 -0.095
02:59 1009 29.8 839 24.78 -2.8 26.9 80 -5.9 21.5 -2.395 -0.094
03:00 1009 29.8 839 24.78 -2.8 26.9 80 -5.8 21.5 -2.406 -0.095
03:01 1009 29.8 839 24.78 -2.8 26.9 80 -5.8 21.5 -2.446 -0.096
03:02 1009 29.8 839 24.78 -2.9 26.9 80 -5.8 21.5 -2.463 -0.097
03:03 1009 29.8 839 24.78 -2.9 26.7 80 -5.9 21.4 -2.502 -0.099
03:04 1009 29.8 839 24.78 -2.9 26.8 80 -5.9 21.5 -2.519 -0.099
03:05 1009 29.8 839 24.78 -2.9 26.7 80 -5.9 21.4 -2.496 -0.098
03:06 1009 29.8 839 24.78 -2.9 26.8 80 -5.9 21.4 -2.53 -0.1
03:07 1009 29.8 839 24.78 -2.9 26.7 80 -5.9 21.4 -2.553 -0.101
03:08 1009 29.8 839 24.78 -3 26.6 80 -5.9 21.4 -2.57 -0.101
03:09 1009 29.8 839 24.78 -3 26.6 81 -5.9 21.5 -2.57 -0.101
03:10 1009 29.8 839 24.78 -3 26.5 81 -5.8 21.5 -2.604 -0.103
03:11 1009 29.8 839 24.78 -3 26.6 81 -5.8 21.5 -2.581 -0.102
03:12 1009 29.8 839 24.78 -3.1 26.5 81 -5.9 21.5 -2.626 -0.103
03:13 1009 29.8 839 24.78 -3.1 26.5 82 -5.8 21.6 -2.672 -0.105
03:14 1009 29.8 838 24.75 -3.1 26.4 81 -5.8 21.5 -2.638 -0.104
03:15 1009 29.8 838 24.75 -3 26.5 81 -5.8 21.6 -2.626 -0.103
03:16 1009 29.8 839 24.78 -3 26.6 81 -5.8 21.6 -2.609 -0.103
03:17 1009 29.8 839 24.78 -3 26.6 81 -5.8 21.5 -2.598 -0.102
03:18 1009 29.8 839 24.78 -3 26.6 81 -5.8 21.6 -2.587 -0.102
03:19 1009 29.8 839 24.78 -3 26.6 81 -5.8 21.5 -2.581 -0.102
03:20 1009 29.8 839 24.78 -3 26.7 81 -5.8 21.5 -2.536 -0.1
03:21 1009 29.8 838 24.75 -3 26.6 81 -5.8 21.5 -2.581 -0.102
03:22 1009 29.8 838 24.75 -3 26.6 81 -5.8 21.5 -2.575 -0.101
03:23 1009 29.8 838 24.75 -3 26.6 81 -5.8 21.5 -2.581 -0.102
03:24 1009 29.8 838 24.75 -3 26.6 81 -5.8 21.5 -2.564 -0.101
03:25 1009 29.8 838 24.75 -2.9 26.7 81 -5.8 21.5 -2.57 -0.101
03:26 1009 29.8 838 24.75 -3 26.6 81 -5.9 21.5 -2.547 -0.1
03:27 1009 29.8 838 24.75 -2.9 26.7 80 -5.9 21.4 -2.507 -0.099
03:28 1009 29.8 838 24.75 -2.9 26.8 80 -5.8 21.5 -2.507 -0.099
03:29 1009 29.8 838 24.75 -3 26.7 80 -5.9 21.4 -2.536 -0.1
03:30 1009 29.8 838 24.75 -3 26.7 80 -5.9 21.4 -2.553 -0.101
03:31 1009 29.8 838 24.75 -2.9 26.7 81 -5.8 21.5 -2.541 -0.1
03:32 1009 29.8 838 24.75 -3 26.7 81 -5.8 21.5 -2.57 -0.101
03:33 1009 29.8 838 24.75 -2.9 26.7 81 -5.8 21.6 -2.581 -0.102
03:34 1009 29.8 838 24.75 -3 26.6 81 -5.8 21.5 -2.626 -0.103
03:35 1009 29.8 838 24.75 -3 26.5 81 -5.8 21.5 -2.643 -0.104
03:36 1009 29.8 838 24.75 -3 26.5 81 -5.8 21.5 -2.575 -0.101
03:37 1009 29.8 838 24.75 -3 26.6 81 -5.9 21.4 -2.558 -0.101
03:38 1009 29.8 838 24.75 -3 26.7 81 -5.8 21.5 -2.513 -0.099
03:39 1009 29.8 838 24.75 -3 26.6 81 -5.9 21.5 -2.552 -0.1
03:40 1009 29.8 838 24.75 -3 26.7 80 -5.9 21.4 -2.501 -0.098
03:41 1009 29.8 838 24.75 -2.9 26.7 80 -5.9 21.5 -2.541 -0.1
03:42 1009 29.8 838 24.75 -2.9 26.7 81 -5.8 21.5 -2.541 -0.1
03:43 1009 29.8 838 24.75 -2.9 26.7 80 -5.9 21.4 -2.513 -0.099
03:44 1009 29.8 838 24.75 -2.9 26.7 80 -5.9 21.5 -2.541 -0.1
03:45 1009 29.8 838 24.75 -2.9 26.7 80 -5.9 21.4 -2.569 -0.101
03:46 1009 29.8 838 24.75 -3 26.6 81 -5.9 21.4 -2.552 -0.1
03:47 1009 29.8 838 24.75 -3 26.6 81 -5.9 21.4 -2.558 -0.101
03:48 1009 29.8 838 24.75 -3 26.6 81 -5.9 21.5 -2.62 -0.103
03:49 1009 29.8 838 24.75 -3 26.5 81 -5.8 21.5 -2.62 -0.103
03:50 1009 29.8 838 24.75 -3.1 26.4 81 -5.9 21.4 -2.626 -0.103
03:51 1009 29.8 838 24.75 -3 26.5 81 -5.8 21.5 -2.632 -0.104
03:52 1009 29.8 838 24.75 -3 26.6 81 -5.8 21.6 -2.626 -0.103
03:53 1009 29.8 838 24.75 -3 26.5 81 -5.8 21.5 -2.654 -0.104
03:54 1009 29.8 838 24.75 -3.1 26.5 81 -5.9 21.4 -2.677 -0.105
03:55 1009 29.8 838 24.75 -3.1 26.5 81 -5.9 21.5 -2.649 -0.104
03:56 1009 29.8 838 24.75 -3.1 26.5 81 -5.9 21.4 -2.637 -0.104
03:57 1009 29.8 838 24.75 -3 26.6 81 -5.9 21.4 -2.609 -0.103
03:58 1009 29.8 838 24.75 -3 26.6 80 -5.9 21.4 -2.569 -0.101
03:59 1009 29.8 838 24.75 -3 26.7 80 -5.9 21.4 -2.581 -0.102
04:00 1009 29.8 838 24.75 -3 26.6 81 -5.9 21.4 -2.586 -0.102
04:01 1009 29.8 838 24.75 -3 26.6 80 -5.9 21.4 -2.552 -0.1
04:02 1009 29.8 838 24.75 -2.9 26.7 80 -5.9 21.4 -2.53 -0.1
04:03 1009 29.8 838 24.75 -3 26.7 80 -5.9 21.4 -2.569 -0.101
04:04 1009 29.8 838 24.75 -2.9 26.7 80 -5.9 21.4 -2.541 -0.1
04:05 1009 29.8 838 24.75 -3 26.6 80 -5.9 21.3 -2.569 -0.101
04:06 1009 29.8 838 24.75 -3 26.7 80 -5.9 21.3 -2.518 -0.099
04:07 1009 29.8 838 24.75 -2.9 26.7 80 -5.9 21.4 -2.518 -0.099
04:08 1009 29.8 838 24.75 -3 26.7 80 -5.9 21.3 -2.535 -0.1
04:09 1009 29.8 838 24.75 -2.9 26.7 80 -5.9 21.4 -2.535 -0.1
04:10 1009 29.8 838 24.75 -2.9 26.8 80 -5.9 21.4 -2.53 -0.1
04:11 1009 29.8 838 24.75 -2.9 26.8 80 -5.9 21.4 -2.496 -0.098
04:12 1009 29.8 838 24.75 -2.9 26.8 80 -5.9 21.4 -2.496 -0.098
04:13 1009 29.8 838 24.75 -2.9 26.8 80 -5.9 21.4 -2.473 -0.097
04:14 1009 29.8 838 24.75 -2.9 26.8 80 -5.9 21.4 -2.479 -0.098
04:15 1009 29.8 838 24.75 -2.9 26.8 80 -5.9 21.4 -2.473 -0.097
04:16 1009 29.8 838 24.75 -2.9 26.8 80 -5.9 21.4 -2.462 -0.097
04:17 1009 29.8 838 24.75 -2.9 26.8 80 -5.9 21.4 -2.496 -0.098
04:18 1009 29.8 838 24.75 -2.9 26.8 80 -5.9 21.4 -2.45 -0.096
04:19 1009 29.8 838 24.75 -2.9 26.8 80 -5.9 21.4 -2.428 -0.096
04:20 1009 29.8 838 24.75 -2.8 26.9 80 -5.9 21.5 -2.467 -0.097
04:21 1009 29.8 838 24.75 -2.8 26.9 80 -5.9 21.4 -2.394 -0.094
04:22 1009 29.8 838 24.75 -2.8 27 79 -5.9 21.4 -2.388 -0.094
04:23 1009 29.8 838 24.75 -2.8 27 79 -5.9 21.4 -2.382 -0.094
04:24 1009 29.8 838 24.75 -2.8 27 79 -5.9 21.4 -2.348 -0.092
04:25 1009 29.8 838 24.75 -2.7 27.1 79 -5.9 21.4 -2.348 -0.092
04:26 1009 29.8 838 24.75 -2.7 27.1 79 -5.9 21.3 -2.331 -0.092
04:27 1009 29.8 838 24.75 -2.7 27.1 79 -6 21.3 -2.28 -0.09
04:28 1009 29.8 838 24.75 -2.7 27.1 79 -5.9 21.3 -2.275 -0.09
04:29 1009 29.8 838 24.75 -2.7 27.2 78 -5.9 21.3 -2.246 -0.088
04:30 1009 29.8 838 24.75 -2.6 27.3 78 -5.9 21.3 -2.161 -0.085
04:31 1009 29.8 838 24.75 -2.6 27.3 78 -5.9 21.3 -2.15 -0.085
04:32 1009 29.8 838 24.75 -2.6 27.4 78 -5.9 21.4 -2.178 -0.086
04:33 1009 29.8 838 24.75 -2.5 27.4 78 -5.9 21.4 -2.167 -0.085
04:34 1009 29.8 838 24.75 -2.6 27.4 78 -5.9 21.4 -2.156 -0.085
04:35 1009 29.8 838 24.75 -2.5 27.4 78 -5.8 21.5 -2.139 -0.084
04:36 1008 29.77 838 24.75 -2.6 27.4 78 -5.9 21.4 -2.161 -0.085
04:37 1008 29.77 838 24.75 -2.6 27.4 78 -5.9 21.3 -2.122 -0.084
04:38 1009 29.8 838 24.75 -2.6 27.4 78 -5.9 21.3 -2.127 -0.084
04:39 1008 29.77 838 24.75 -2.6 27.4 78 -5.9 21.3 -2.11 -0.083
04:40 1008 29.77 838 24.75 -2.6 27.4 78 -5.9 21.4 -2.139 -0.084
04:41 1009 29.8 838 24.75 -2.6 27.3 78 -5.9 21.3 -2.167 -0.085
04:42 1009 29.8 838 24.75 -2.6 27.3 78 -6 21.3 -2.161 -0.085
04:43 1009 29.8 838 24.75 -2.6 27.3 78 -5.9 21.3 -2.19 -0.086
04:44 1009 29.8 838 24.75 -2.6 27.3 78 -5.8 21.5 -2.19 -0.086
04:45 1009 29.8 838 24.75 -2.6 27.2 78 -5.9 21.4 -2.224 -0.088
04:46 1009 29.8 838 24.75 -2.7 27.2 79 -5.9 21.4 -2.212 -0.087
04:47 1009 29.8 838 24.75 -2.7 27.2 79 -5.9 21.4 -2.269 -0.089
04:48 1009 29.8 838 24.75 -2.7 27.2 79 -5.9 21.4 -2.218 -0.087
04:49 1008 29.77 838 24.75 -2.6 27.2 79 -5.9 21.4 -2.252 -0.089
04:50 1008 29.77 838 24.75 -2.7 27.2 79 -5.9 21.4 -2.218 -0.087
04:51 1008 29.77 838 24.75 -2.6 27.3 78 -5.9 21.4 -2.212 -0.087
04:52 1008 29.77 838 24.75 -2.6 27.3 79 -5.8 21.5 -2.229 -0.088
04:53 1009 29.8 838 24.75 -2.6 27.3 78 -5.9 21.4 -2.195 -0.086
04:54 1009 29.8 838 24.75 -2.5 27.4 78 -5.8 21.6 -2.156 -0.085
04:55 1008 29.77 838 24.75 -2.5 27.4 78 -5.8 21.5 -2.099 -0.083
04:56 1008 29.77 838 24.75 -2.5 27.5 78 -5.8 21.5 -2.065 -0.081
04:57 1008 29.77 838 24.75 -2.5 27.5 78 -5.8 21.5 -2.099 -0.083
04:58 1008 29.77 838 24.75 -2.5 27.5 78 -5.8 21.5 -2.076 -0.082
04:59 1008 29.77 838 24.75 -2.5 27.5 78 -5.8 21.6 -2.071 -0.082
05:00 1008 29.77 838 24.75 -2.5 27.5 78 -5.9 21.4 -2.054 -0.081
05:01 1008 29.77 838 24.75 -2.5 27.6 78 -5.8 21.6 -2.071 -0.082
05:02 1008 29.77 838 24.75 -2.5 27.5 78 -5.8 21.6 -2.082 -0.082
05:03 1008 29.77 838 24.75 -2.5 27.5 78 -5.8 21.6 -2.076 -0.082
05:04 1009 29.8 838 24.75 -2.5 27.6 78 -5.8 21.6 -2.059 -0.081
05:05 1009 29.8 838 24.75 -2.5 27.5 78 -5.8 21.6 -2.031 -0.08
05:06 1008 29.77 838 24.75 -2.4 27.6 78 -5.8 21.6 -2.037 -0.08
05:07 1008 29.77 838 24.75 -2.4 27.6 77 -5.9 21.4 -2.003 -0.079
05:08 1008 29.77 838 24.75 -2.4 27.7 78 -5.8 21.6 -1.963 -0.077
05:09 1008 29.77 838 24.75 -2.4 27.7 78 -5.8 21.6 -1.946 -0.077
05:10 1008 29.77 838 24.75 -2.4 27.7 78 -5.8 21.6 -1.952 -0.077
05:11 1008 29.77 838 24.75 -2.4 27.7 77 -5.8 21.5 -1.923 -0.076
05:12 1008 29.77 838 24.75 -2.3 27.8 77 -5.8 21.5 -1.918 -0.076
05:13 1008 29.77 838 24.75 -2.3 27.9 77 -5.7 21.7 -1.872 -0.074
05:14 1008 29.77 838 24.75 -2.3 27.9 77 -5.9 21.4 -1.861 -0.073
05:15 1008 29.77 838 24.75 -2.3 27.9 77 -5.9 21.4 -1.81 -0.071
05:16 1008 29.77 838 24.75 -2.2 28 77 -5.7 21.7 -1.827 -0.072
05:17 1008 29.77 838 24.75 -2.3 27.9 77 -5.8 21.5 -1.827 -0.072
05:18 1008 29.77 838 24.75 -2.3 27.9 77 -5.7 21.7 -1.838 -0.072
05:19 1008 29.77 838 24.75 -2.3 27.9 77 -5.8 21.6 -1.889 -0.074
05:20 1008 29.77 838 24.75 -2.3 27.8 77 -5.9 21.4 -1.895 -0.075
05:21 1008 29.77 838 24.75 -2.3 27.8 77 -5.8 21.5 -1.906 -0.075
05:22 1008 29.77 838 24.75 -2.4 27.7 77 -5.8 21.5 -1.952 -0.077
05:23 1008 29.77 838 24.75 -2.4 27.7 77 -5.9 21.5 -1.986 -0.078
05:24 1008 29.77 838 24.75 -2.4 27.6 77 -5.9 21.4 -2.008 -0.079
05:25 1008 29.77 838 24.75 -2.4 27.6 77 -5.9 21.4 -2.003 -0.079
05:26 1008 29.77 838 24.75 -2.5 27.5 77 -5.9 21.4 -2.042 -0.08
05:27 1008 29.77 838 24.75 -2.5 27.5 78 -5.9 21.4 -2.082 -0.082
05:28 1008 29.77 838 24.75 -2.5 27.5 77 -5.9 21.3 -2.071 -0.082
05:29 1008 29.77 838 24.75 -2.5 27.5 77 -6 21.3 -2.082 -0.082
05:30 1008 29.77 838 24.75 -2.5 27.6 77 -5.9 21.4 -2.042 -0.08
05:31 1008 29.77 838 24.75 -2.5 27.5 78 -5.9 21.4 -2.037 -0.08
05:32 1008 29.77 838 24.75 -2.5 27.5 78 -5.8 21.5 -2.048 -0.081
05:33 1008 29.77 838 24.75 -2.5 27.6 77 -5.9 21.3 -2.048 -0.081
05:34 1008 29.77 838 24.75 -2.4 27.7 77 -5.9 21.3 -1.952 -0.077
05:35 1008 29.77 838 24.75 -2.3 27.8 77 -5.8 21.5 -1.906 -0.075
05:36 1008 29.77 838 24.75 -2.3 27.9 77 -5.8 21.5 -1.884 -0.074
05:37 1008 29.77 838 24.75 -2.3 27.9 77 -5.8 21.5 -1.85 -0.073
05:38 1008 29.77 838 24.75 -2.2 28 76 -5.8 21.5 -1.816 -0.071
05:39 1009 29.8 838 24.75 -2.3 27.9 76 -5.9 21.3 -1.799 -0.071
05:40 1008 29.77 838 24.75 -2.2 28 77 -5.8 21.6 -1.81 -0.071
05:41 1008 29.77 838 24.75 -2.2 28 77 -5.7 21.7 -1.827 -0.072
05:42 1008 29.77 838 24.75 -2.2 28 77 -5.7 21.8 -1.81 -0.071
05:43 1008 29.77 838 24.75 -2.2 28 77 -5.8 21.6 -1.804 -0.071
05:44 1008 29.77 838 24.75 -2.2 28 77 -5.8 21.5 -1.793 -0.071
05:45 1008 29.77 838 24.75 -2.2 28 76 -5.8 21.5 -1.742 -0.069
05:46 1008 29.77 838 24.75 -2.2 28.1 77 -5.7 21.7 -1.77 -0.07
05:47 1008 29.77 838 24.75 -2.2 28 76 -5.8 21.6 -1.776 -0.07
05:48 1008 29.77 838 24.75 -2.2 28 77 -5.7 21.7 -1.804 -0.071
05:49 1009 29.8 838 24.75 -2.2 28 76 -5.9 21.5 -1.782 -0.07
05:50 1008 29.77 838 24.75 -2.2 28 77 -5.8 21.6 -1.765 -0.069
05:51 1008 29.77 838 24.75 -2.2 28 77 -5.7 21.7 -1.827 -0.072
05:52 1008 29.77 838 24.75 -2.2 28 77 -5.7 21.7 -1.833 -0.072
05:53 1008 29.77 838 24.75 -2.2 28 77 -5.8 21.6 -1.793 -0.071
05:54 1008 29.77 838 24.75 -2.2 28.1 77 -5.8 21.6 -1.782 -0.07
05:55 1008 29.77 838 24.75 -2.2 28.1 77 -5.7 21.7 -1.765 -0.069
05:56 1008 29.77 838 24.75 -2.2 28.1 77 -5.7 21.8 -1.76 -0.069
05:57 1008 29.77 838 24.75 -2.2 28.1 77 -5.7 21.8 -1.749 -0.069
05:58 1008 29.77 838 24.75 -2.2 28 77 -5.6 21.9 -1.749 -0.069
05:59 1008 29.77 838 24.75 -2.2 28.1 77 -5.7 21.7 -1.754 -0.069
06:00 1008 29.77 838 24.75 -2.2 28.1 77 -5.7 21.7 -1.732 -0.068
06:01 1008 29.77 838 24.75 -2.1 28.2 77 -5.7 21.8 -1.703 -0.067
06:02 1008 29.77 837 24.72 -2.1 28.1 77 -5.6 21.9 -1.733 -0.068
06:03 1008 29.77 837 24.72 -2.1 28.2 77 -5.6 21.9 -1.75 -0.069
06:04 1008 29.77 838 24.75 -2.2 28 78 -5.6 22 -1.784 -0.07
06:05 1008 29.77 838 24.75 -2.2 28 77 -5.7 21.7 -1.789 -0.07
06:06 1008 29.77 838 24.75 -2.2 28 77 -5.7 21.7 -1.783 -0.07
06:07 1008 29.77 838 24.75 -2.2 28 78 -5.6 21.9 -1.795 -0.071
06:08 1008 29.77 838 24.75 -2.2 28 77 -5.7 21.8 -1.83 -0.072
06:09 1008 29.77 838 24.75 -2.2 28 78 -5.6 21.9 -1.807 -0.071
06:10 1008 29.77 838 24.75 -2.2 28 77 -5.7 21.8 -1.818 -0.072
06:11 1008 29.77 838 24.75 -2.2 28 78 -5.7 21.8 -1.812 -0.071
06:12 1008 29.77 838 24.75 -2.2 28 78 -5.6 21.9 -1.841 -0.072
06:13 1008 29.77 838 24.75 -2.2 28 78 -5.6 21.8 -1.841 -0.072
06:14 1008 29.77 838 24.75 -2.3 27.9 78 -5.6 21.9 -1.858 -0.073
06:15 1008 29.77 838 24.75 -2.3 27.9 78 -5.6 21.9 -1.881 -0.074
06:16 1008 29.77 838 24.75 -2.3 27.8 78 -5.6 21.8 -1.864 -0.073
06:17 1008 29.77 838 24.75 -2.3 27.8 78 -5.7 21.8 -1.92 -0.076
06:18 1008 29.77 838 24.75 -2.3 27.8 78 -5.6 21.9 -1.943 -0.076
06:19 1008 29.77 838 24.75 -2.4 27.8 78 -5.7 21.8 -1.972 -0.078
06:20 1008 29.77 838 24.75 -2.4 27.7 78 -5.7 21.8 -1.955 -0.077
06:21 1008 29.77 837 24.72 -2.4 27.7 79 -5.6 21.8 -1.949 -0.077
06:22 1008 29.77 837 24.72 -2.4 27.7 79 -5.6 21.9 -1.961 -0.077
06:23 1008 29.77 838 24.75 -2.4 27.7 78 -5.7 21.8 -1.967 -0.077
06:24 1008 29.77 838 24.75 -2.4 27.7 79 -5.6 21.9 -1.956 -0.077
06:25 1008 29.77 837 24.72 -2.4 27.7 79 -5.6 21.9 -1.967 -0.077
06:26 1008 29.77 837 24.72 -2.4 27.6 79 -5.7 21.8 -1.973 -0.078
06:27 1008 29.77 837 24.72 -2.4 27.7 79 -5.5 22 -1.945 -0.077
06:28 1008 29.77 837 24.72 -2.4 27.7 79 -5.6 22 -1.939 -0.076
06:29 1008 29.77 837 24.72 -2.4 27.8 79 -5.6 22 -1.94 -0.076
06:30 1008 29.77 837 24.72 -2.4 27.8 79 -5.5 22.1 -1.957 -0.077
06:31 1008 29.77 837 24.72 -2.4 27.7 79 -5.6 22 -1.934 -0.076
06:32 1008 29.77 837 24.72 -2.3 27.8 79 -5.5 22 -1.912 -0.075
06:33 1008 29.77 837 24.72 -2.4 27.8 79 -5.6 21.9 -1.934 -0.076
06:34 1008 29.77 837 24.72 -2.3 27.8 79 -5.5 22.1 -1.95 -0.077
06:35 1008 29.77 837 24.72 -2.4 27.7 79 -5.5 22.1 -1.933 -0.076
06:36 1008 29.77 837 24.72 -2.4 27.7 79 -5.5 22 -1.899 -0.075
06:37 1008 29.77 837 24.72 -2.4 27.8 79 -5.6 22 -1.905 -0.075
06:38 1008 29.77 837 24.72 -2.3 27.8 79 -5.5 22.1 -1.86 -0.073
06:39 1008 29.77 837 24.72 -2.3 27.8 79 -5.4 22.2 -1.883 -0.074
06:40 1008 29.77 837 24.72 -2.3 27.8 79 -5.5 22.1 -1.866 -0.073
06:41 1008 29.77 837 24.72 -2.3 27.8 79 -5.5 22.1 -1.9 -0.075
06:42 1008 29.77 837 24.72 -2.3 27.9 79 -5.4 22.3 -1.877 -0.074
06:43 1008 29.77 837 24.72 -2.4 27.7 79 -5.5 22.1 -1.906 -0.075
06:44 1008 29.77 837 24.72 -2.3 27.8 79 -5.5 22.2 -1.946 -0.077
06:45 1008 29.77 837 24.72 -2.3 27.8 79 -5.5 22.1 -1.906 -0.075
06:46 1008 29.77 837 24.72 -2.3 27.8 79 -5.5 22.1 -1.895 -0.075
06:47 1008 29.77 837 24.72 -2.3 27.8 79 -5.4 22.2 -1.867 -0.074
06:48 1008 29.77 837 24.72 -2.3 27.8 79 -5.5 22.1 -1.878 -0.074
06:49 1008 29.77 837 24.72 -2.3 27.9 79 -5.4 22.2 -1.861 -0.073
06:50 1008 29.77 837 24.72 -2.3 27.9 79 -5.5 22.1 -1.895 -0.075
06:51 1008 29.77 837 24.72 -2.3 27.9 79 -5.5 22.2 -1.816 -0.071
06:52 1008 29.77 837 24.72 -2.3 27.9 79 -5.5 22.2 -1.827 -0.072
06:53 1008 29.77 837 24.72 -2.3 27.9 79 -5.4 22.2 -1.839 -0.072
06:54 1008 29.77 837 24.72 -2.2 28 78 -5.5 22.1 -1.793 -0.071
06:55 1008 29.77 837 24.72 -2.2 28 79 -5.4 22.2 -1.742 -0.069
06:56 1008 29.77 837 24.72 -2.2 28.1 79 -5.4 22.3 -1.759 -0.069
06:57 1008 29.77 837 24.72 -2.2 28 79 -5.4 22.3 -1.793 -0.071
06:58 1008 29.77 837 24.72 -2.2 28 79 -5.4 22.3 -1.799 -0.071
06:59 1008 29.77 837 24.72 -2.2 28 79 -5.3 22.4 -1.816 -0.071
07:00 1008 29.77 837 24.72 -2.3 27.9 79 -5.4 22.3 -1.816 -0.071
07:01 1008 29.77 837 24.72 -2.2 28 79 -5.4 22.3 -1.845 -0.073
07:02 1008 29.77 837 24.72 -2.2 28 79 -5.4 22.4 -1.822 -0.072
07:03 1008 29.77 837 24.72 -2.3 27.9 79 -5.4 22.2 -1.828 -0.072
07:04 1008 29.77 837 24.72 -2.2 28 79 -5.4 22.2 -1.839 -0.072
07:05 1008 29.77 837 24.72 -2.2 28 79 -5.4 22.3 -1.833 -0.072
07:06 1008 29.77 837 24.72 -2.3 27.9 79 -5.4 22.3 -1.845 -0.073
07:07 1008 29.77 837 24.72 -2.3 27.8 80 -5.4 22.4 -1.907 -0.075
07:08 1008 29.77 837 24.72 -2.3 27.8 80 -5.4 22.4 -1.941 -0.076
07:09 1008 29.77 837 24.72 -2.4 27.7 80 -5.4 22.2 -1.958 -0.077
07:10 1008 29.77 837 24.72 -2.4 27.8 80 -5.3 22.4 -1.958 -0.077
07:11 1008 29.77 837 24.72 -2.4 27.6 80 -5.4 22.3 -1.981 -0.078
07:12 1008 29.77 837 24.72 -2.4 27.7 80 -5.4 22.2 -1.981 -0.078
07:13 1008 29.77 837 24.72 -2.4 27.7 79 -5.5 22.1 -1.952 -0.077
07:14 1008 29.77 837 24.72 -2.4 27.7 80 -5.5 22.2 -1.958 -0.077
07:15 1008 29.77 837 24.72 -2.4 27.7 80 -5.4 22.3 -1.952 -0.077
07:16 1008 29.77 837 24.72 -2.4 27.7 80 -5.5 22.2 -1.969 -0.078
07:17 1008 29.77 837 24.72 -2.4 27.7 80 -5.4 22.2 -2.003 -0.079
07:18 1008 29.77 837 24.72 -2.4 27.6 80 -5.4 22.2 -2.02 -0.08
07:19 1008 29.77 837 24.72 -2.4 27.6 80 -5.5 22.1 -1.992 -0.078
07:20 1008 29.77 837 24.72 -2.4 27.6 80 -5.5 22.1 -1.986 -0.078
07:21 1008 29.77 837 24.72 -2.4 27.7 80 -5.3 22.4 -1.992 -0.078
07:22 1008 29.77 837 24.72 -2.4 27.6 80 -5.4 22.2 -2.02 -0.08
07:23 1008 29.77 837 24.72 -2.4 27.6 80 -5.4 22.2 -2.026 -0.08
07:24 1008 29.77 837 24.72 -2.4 27.6 80 -5.5 22.2 -1.975 -0.078
07:25 1008 29.77 837 24.72 -2.4 27.7 79 -5.5 22.1 -1.975 -0.078
07:26 1008 29.77 837 24.72 -2.4 27.7 80 -5.4 22.2 -1.975 -0.078
07:27 1008 29.77 837 24.72 -2.4 27.7 80 -5.4 22.2 -1.964 -0.077
07:28 1008 29.77 837 24.72 -2.4 27.7 79 -5.5 22.1 -1.947 -0.077
07:29 1008 29.77 837 24.72 -2.3 27.8 79 -5.4 22.3 -1.93 -0.076
07:30 1008 29.77 837 24.72 -2.3 27.8 79 -5.4 22.2 -1.913 -0.075
07:31 1008 29.77 837 24.72 -2.3 27.8 79 -5.5 22.2 -1.89 -0.074
07:32 1008 29.77 837 24.72 -2.3 27.9 79 -5.5 22.1 -1.862 -0.073
07:33 1008 29.77 837 24.72 -2.2 28 78 -5.5 22 -1.788 -0.07
07:34 1008 29.77 837 24.72 -2.2 28.1 78 -5.5 22.1 -1.754 -0.069
07:35 1008 29.77 837 24.72 -2.1 28.2 78 -5.5 22.1 -1.709 -0.067
07:36 1008 29.77 837 24.72 -2.1 28.2 78 -5.5 22.1 -1.703 -0.067
07:37 1008 29.77 837 24.72 -2.1 28.2 78 -5.5 22.1 -1.72 -0.068
07:38 1008 29.77 837 24.72 -2.1 28.2 78 -5.4 22.2 -1.669 -0.066
07:39 1008 29.77 837 24.72 -2.1 28.2 78 -5.4 22.2 -1.692 -0.067
07:40 1008 29.77 837 24.72 -2.1 28.2 78 -5.4 22.2 -1.698 -0.067
07:41 1008 29.77 837 24.72 -2.1 28.1 78 -5.4 22.2 -1.72 -0.068
07:42 1008 29.77 837 24.72 -2.1 28.2 78 -5.4 22.3 -1.743 -0.069
07:43 1008 29.77 837 24.72 -2.1 28.1 78 -5.4 22.3 -1.777 -0.07
07:44 1008 29.77 837 24.72 -2.1 28.1 78 -5.4 22.3 -1.72 -0.068
07:45 1008 29.77 837 24.72 -2.1 28.1 79 -5.4 22.3 -1.76 -0.069
07:46 1008 29.77 837 24.72 -2.2 28.1 79 -5.4 22.3 -1.709 -0.067
07:47 1008 29.77 837 24.72 -2.2 28.1 79 -5.4 22.4 -1.692 -0.067
07:48 1008 29.77 837 24.72 -2.1 28.2 79 -5.3 22.4 -1.692 -0.067
07:49 1008 29.77 837 24.72 -2.1 28.3 79 -5.3 22.5 -1.664 -0.066
07:50 1008 29.77 837 24.72 -2.1 28.3 79 -5.3 22.5 -1.652 -0.065
07:51 1008 29.77 837 24.72 -2 28.3 79 -5.2 22.6 -1.652 -0.065
07:52 1008 29.77 837 24.72 -2 28.4 79 -5.2 22.7 -1.635 -0.064
07:53 1008 29.77 837 24.72 -2 28.3 79 -5.1 22.7 -1.641 -0.065
07:54 1008 29.77 837 24.72 -2 28.3 80 -5.1 22.8 -1.624 -0.064
07:55 1008 29.77 837 24.72 -2.1 28.3 79 -5.2 22.7 -1.624 -0.064
07:56 1008 29.77 837 24.72 -2 28.3 80 -5.1 22.9 -1.658 -0.065
07:57 1008 29.77 837 24.72 -2.1 28.2 80 -5.2 22.7 -1.72 -0.068
07:58 1008 29.77 837 24.72 -2.1 28.2 80 -5.1 22.8 -1.737 -0.068
07:59 1008 29.77 837 24.72 -2.2 28.1 80 -5.1 22.8 -1.754 -0.069
08:00 1008 29.77 837 24.72 -2.2 28.1 80 -5.1 22.8 -1.754 -0.069
08:01 1008 29.77 837 24.72 -2.2 28.1 80 -5.1 22.8 -1.732 -0.068
08:02 1008 29.77 837 24.72 -2.1 28.2 80 -5.1 22.9 -1.726 -0.068
08:03 1008 29.77 837 24.72 -2.1 28.1 80 -5.2 22.7 -1.715 -0.068
08:04 1008 29.77 837 24.72 -2.1 28.2 80 -5.1 22.9 -1.675 -0.066
08:05 1008 29.77 837 24.72 -2.1 28.2 80 -5.1 22.9 -1.641 -0.065
08:06 1008 29.77 837 24.72 -2.1 28.3 80 -5 23 -1.607 -0.063
08:07 1008 29.77 837 24.72 -2.1 28.3 80 -5.1 22.9 -1.647 -0.065
08:08 1008 29.77 837 24.72 -2 28.3 80 -5.1 22.8 -1.601 -0.063
08:09 1008 29.77 837 24.72 -2 28.4 80 -5 22.9 -1.613 -0.064
08:10 1008 29.77 837 24.72 -2 28.4 79 -5.1 22.8 -1.579 -0.062
08:11 1008 29.77 837 24.72 -2 28.5 79 -5.1 22.8 -1.556 -0.061
08:12 1008 29.77 837 24.72 -1.9 28.5 79 -5 23 -1.55 -0.061
08:13 1008 29.77 837 24.72 -2 28.5 79 -5.2 22.7 -1.556 -0.061
08:14 1008 29.77 837 24.72 -1.9 28.5 79 -5.1 22.9 -1.539 -0.061
08:15 1008 29.77 837 24.72 -1.9 28.5 79 -5.2 22.7 -1.522 -0.06
08:16 1008 29.77 837 24.72 -1.9 28.6 78 -5.2 22.7 -1.505 -0.059
08:17 1008 29.77 837 24.72 -1.9 28.6 78 -5.2 22.7 -1.448 -0.057
08:18 1008 29.77 837 24.72 -1.9 28.7 78 -5.2 22.7 -1.426 -0.056
08:19 1008 29.77 837 24.72 -1.8 28.7 78 -5.2 22.7 -1.392 -0.055
08:20 1008 29.77 837 24.72 -1.8 28.7 78 -5.1 22.8 -1.42 -0.056
08:21 1008 29.77 837 24.72 -1.8 28.8 78 -5.1 22.8 -1.397 -0.055
08:22 1008 29.77 837 24.72 -1.8 28.8 78 -5.1 22.8 -1.403 -0.055
08:23 1008 29.77 837 24.72 -1.8 28.7 78 -5.2 22.7 -1.392 -0.055
08:24 1008 29.77 837 24.72 -1.8 28.8 77 -5.2 22.6 -1.346 -0.053
08:25 1008 29.77 837 24.72 -1.7 28.9 78 -5.1 22.8 -1.38 -0.054
08:26 1008 29.77 837 24.72 -1.8 28.8 77 -5.2 22.6 -1.346 -0.053
08:27 1008 29.77 837 24.72 -1.7 28.9 77 -5.2 22.6 -1.307 -0.051
08:28 1008 29.77 837 24.72 -1.7 28.9 77 -5.3 22.5 -1.284 -0.051
08:29 1008 29.77 837 24.72 -1.7 29 77 -5.2 22.6 -1.239 -0.049
08:30 1008 29.77 837 24.72 -1.6 29.1 76 -5.2 22.6 -1.227 -0.048
08:31 1008 29.77 837 24.72 -1.6 29.1 77 -5.2 22.7 -1.21 -0.048
08:32 1008 29.77 837 24.72 -1.6 29.1 77 -5.2 22.7 -1.205 -0.047
08:33 1008 29.77 837 24.72 -1.7 29 77 -5.1 22.7 -1.233 -0.049
08:34 1008 29.77 837 24.72 -1.6 29 77 -5.2 22.7 -1.262 -0.05
08:35 1008 29.77 837 24.72 -1.6 29 77 -5.2 22.7 -1.223 -0.048
08:36 1008 29.77 837 24.72 -1.6 29.2 77 -5.1 22.8 -1.161 -0.046
08:37 1008 29.77 837 24.72 -1.6 29.2 77 -5.1 22.8 -1.16 -0.046
08:38 1008 29.77 837 24.72 -1.6 29.2 77 -5.1 22.8 -1.16 -0.046
08:39 1008 29.77 837 24.72 -1.6 29.2 77 -5 23 -1.183 -0.047
08:40 1008 29.77 837 24.72 -1.5 29.2 78 -4.9 23.2 -1.143 -0.045
08:41 1008 29.77 837 24.72 -1.6 29.2 77 -5 22.9 -1.194 -0.047
08:42 1008 29.77 837 24.72 -1.6 29.1 77 -5.1 22.9 -1.154 -0.045
08:43 1008 29.77 837 24.72 -1.5 29.2 77 -5 23 -1.149 -0.045
08:44 1008 29.77 837 24.72 -1.5 29.3 77 -5 23 -1.12 -0.044
08:45 1008 29.77 837 24.72 -1.5 29.3 77 -5 23.1 -1.081 -0.043
08:46 1008 29.77 837 24.72 -1.5 29.3 77 -5 23.1 -1.099 -0.043
08:47 1008 29.77 837 24.72 -1.5 29.3 77 -5 23 -1.065 -0.042
08:48 1008 29.77 837 24.72 -1.5 29.4 77 -5 23.1 -1.037 -0.041
08:49 1008 29.77 837 24.72 -1.4 29.5 77 -4.9 23.2 -0.969 -0.038
08:50 1008 29.77 837 24.72 -1.4 29.5 77 -4.9 23.2 -0.986 -0.039
08:51 1008 29.77 837 24.72 -1.4 29.5 77 -5 23 -0.992 -0.039
08:52 1008 29.77 837 24.72 -1.4 29.5 77 -5 23.1 -0.959 -0.038
08:53 1008 29.77 837 24.72 -1.4 29.6 77 -4.9 23.1 -0.936 -0.037
08:54 1008 29.77 837 24.72 -1.3 29.6 76 -5 22.9 -0.914 -0.036
08:55 1008 29.77 837 24.72 -1.3 29.6 76 -5 23.1 -0.903 -0.036
08:56 1008 29.77 837 24.72 -1.3 29.6 76 -5 23 -0.92 -0.036
08:57 1008 29.77 837 24.72 -1.4 29.5 77 -4.9 23.2 -0.948 -0.037
08:58 1008 29.77 837 24.72 -1.3 29.6 76 -5.1 22.9 -0.915 -0.036
08:59 1008 29.77 837 24.72 -1.3 29.6 76 -5 23.1 -0.932 -0.037
09:00 1008 29.77 837 24.72 -1.3 29.6 76 -5 23.1 -0.937 -0.037
09:01 1008 29.77 837 24.72 -1.4 29.6 77 -4.9 23.1 -0.932 -0.037
09:02 1008 29.77 837 24.72 -1.3 29.6 76 -5 23.1 -0.904 -0.036
09:03 1008 29.77 837 24.72 -1.3 29.6 76 -5 23.1 -0.909 -0.036
09:04 1008 29.77 837 24.72 -1.3 29.7 77 -4.9 23.2 -0.921 -0.036
09:05 1008 29.77 837 24.72 -1.3 29.6 77 -4.8 23.3 -0.898 -0.035
09:06 1008 29.77 837 24.72 -1.3 29.7 76 -4.9 23.1 -0.904 -0.036
09:07 1008 29.77 837 24.72 -1.3 29.7 76 -5 23.1 -0.893 -0.035
09:08 1008 29.77 837 24.72 -1.3 29.6 76 -5 23 -0.882 -0.035
09:09 1008 29.77 837 24.72 -1.3 29.7 77 -4.9 23.2 -0.91 -0.036
09:10 1008 29.77 837 24.72 -1.3 29.7 77 -4.8 23.4 -0.87 -0.034
09:11 1008 29.77 837 24.72 -1.3 29.7 77 -4.8 23.4 -0.887 -0.035
09:12 1008 29.77 837 24.72 -1.3 29.7 76 -4.9 23.1 -0.882 -0.035
09:13 1008 29.77 837 24.72 -1.3 29.7 77 -4.9 23.2 -0.831 -0.033
09:14 1008 29.77 837 24.72 -1.3 29.7 76 -4.9 23.2 -0.848 -0.033
09:15 1008 29.77 837 24.72 -1.2 29.8 77 -4.7 23.5 -0.859 -0.034
09:16 1008 29.77 837 24.72 -1.3 29.7 77 -4.7 23.5 -0.865 -0.034
09:17 1008 29.77 837 24.72 -1.2 29.8 77 -4.8 23.4 -0.865 -0.034
09:18 1008 29.77 837 24.72 -1.2 29.8 76 -4.9 23.2 -0.792 -0.031
09:19 1008 29.77 837 24.72 -1.2 29.9 76 -4.9 23.3 -0.786 -0.031
09:20 1008 29.77 837 24.72 -1.2 29.9 77 -4.7 23.5 -0.775 -0.031
09:21 1008 29.77 837 24.72 -1.1 30 77 -4.7 23.5 -0.746 -0.029
09:22 1008 29.77 837 24.72 -1.1 30 76 -4.9 23.2 -0.701 -0.028
09:23 1008 29.77 837 24.72 -1.1 30 76 -4.8 23.4 -0.684 -0.027
09:24 1008 29.77 837 24.72 -1.1 30.1 76 -4.7 23.5 -0.633 -0.025
09:25 1008 29.77 837 24.72 -1 30.2 76 -4.7 23.6 -0.65 -0.026
09:26 1008 29.77 837 24.72 -1 30.2 76 -4.7 23.5 -0.656 -0.026
09:27 1008 29.77 837 24.72 -1 30.2 76 -4.7 23.5 -0.616 -0.024
09:28 1008 29.77 837 24.72 -1 30.2 76 -4.7 23.6 -0.61 -0.024
09:29 1008 29.77 837 24.72 -0.9 30.3 76 -4.7 23.5 -0.588 -0.023
09:30 1008 29.77 837 24.72 -1 30.2 76 -4.8 23.4 -0.616 -0.024
09:31 1008 29.77 837 24.72 -1 30.3 75 -4.9 23.2 -0.599 -0.024
09:32 1008 29.77 837 24.72 -1 30.2 75 -4.9 23.2 -0.56 -0.022
09:33 1008 29.77 837 24.72 -0.9 30.3 75 -4.9 23.2 -0.56 -0.022
09:34 1008 29.77 837 24.72 -0.9 30.4 75 -4.7 23.5 -0.56 -0.022
09:35 1008 29.77 837 24.72 -0.9 30.3 75 -4.8 23.4 -0.543 -0.021
09:36 1008 29.77 837 24.72 -0.9 30.3 75 -4.7 23.5 -0.571 -0.022
09:37 1008 29.77 837 24.72 -0.9 30.3 76 -4.7 23.6 -0.577 -0.023
09:38 1008 29.77 837 24.72 -1 30.3 76 -4.7 23.5 -0.56 -0.022
09:39 1008 29.77 837 24.72 -0.9 30.3 75 -4.8 23.4 -0.548 -0.022
09:40 1008 29.77 837 24.72 -0.9 30.4 76 -4.7 23.6 -0.56 -0.022
09:41 1008 29.77 837 24.72 -0.9 30.4 76 -4.7 23.6 -0.514 -0.02
09:42 1008 29.77 837 24.72 -0.9 30.4 75 -4.8 23.3 -0.509 -0.02
09:43 1008 29.77 837 24.72 -0.9 30.4 75 -4.8 23.4 -0.486 -0.019
09:44 1008 29.77 837 24.72 -0.8 30.5 75 -4.7 23.6 -0.452 -0.018
09:45 1008 29.77 837 24.72 -0.8 30.5 76 -4.6 23.7 -0.441 -0.017
09:46 1008 29.77 837 24.72 -0.8 30.5 75 -4.7 23.6 -0.446 -0.018
09:47 1008 29.77 837 24.72 -0.8 30.6 75 -4.7 23.5 -0.424 -0.017
09:48 1008 29.77 837 24.72 -0.8 30.6 75 -4.7 23.6 -0.378 -0.015
09:49 1008 29.77 837 24.72 -0.8 30.6 75 -4.7 23.6 -0.373 -0.015
09:50 1008 29.77 837 24.72 -0.7 30.7 75 -4.7 23.6 -0.305 -0.012
09:51 1008 29.77 837 24.72 -0.7 30.8 75 -4.5 23.9 -0.293 -0.012
09:52 1008 29.77 837 24.72 -0.6 30.9 74 -4.6 23.7 -0.248 -0.01
09:53 1008 29.77 837 24.72 -0.6 30.9 75 -4.5 23.9 -0.231 -0.009
09:54 1008 29.77 837 24.72 -0.6 31 74 -4.6 23.6 -0.203 -0.008
09:55 1008 29.77 837 24.72 -0.5 31 74 -4.6 23.8 -0.157 -0.006
09:56 1008 29.77 837 24.72 -0.5 31.1 74 -4.6 23.7 -0.14 -0.006
09:57 1008 29.77 837 24.72 -0.5 31.2 74 -4.6 23.8 -0.106 -0.004
09:58 1008 29.77 837 24.72 -0.4 31.2 73 -4.6 23.7 -0.05 -0.002
09:59 1008 29.77 837 24.72 -0.4 31.3 74 -4.5 23.9 0.035 0.001
10:00 1008 29.77 837 24.72 -0.3 31.4 73 -4.6 23.7 0.058 0.002
10:01 1008 29.77 837 24.72 -0.3 31.4 73 -4.5 23.9 0.069 0.003
10:02 1008 29.77 837 24.72 -0.3 31.4 73 -4.6 23.8 0.092 0.004
10:03 1008 29.77 837 24.72 -0.3 31.5 73 -4.5 23.9 0.069 0.003
10:04 1008 29.77 837 24.72 -0.2 31.6 73 -4.5 24 0.086 0.003
10:05 1008 29.77 837 24.72 -0.2 31.6 73 -4.5 23.8 0.131 0.005
10:06 1008 29.77 837 24.72 -0.2 31.6 72 -4.6 23.7 0.171 0.007
10:07 1008 29.77 837 24.72 -0.2 31.6 73 -4.5 24 0.194 0.008
10:08 1008 29.77 837 24.72 -0.2 31.7 72 -4.6 23.7 0.25 0.01
10:09 1008 29.77 837 24.72 -0.1 31.8 73 -4.4 24.2 0.273 0.011
10:10 1008 29.77 837 24.72 -0.1 31.8 72 -4.5 23.9 0.279 0.011
10:11 1008 29.77 837 24.72 -0 31.9 73 -4.4 24.1 0.318 0.013
10:12 1008 29.77 837 24.72 -0 32 73 -4.2 24.4 0.318 0.013
10:13 1008 29.77 837 24.72 -0.1 31.9 73 -4.3 24.2 0.279 0.011
10:14 1008 29.77 837 24.72 -0.1 31.8 74 -4.2 24.5 0.211 0.008
10:15 1008 29.77 837 24.72 -0.1 31.8 74 -4.2 24.5 0.165 0.006
10:16 1008 29.77 837 24.72 -0.2 31.7 74 -4.3 24.3 0.148 0.006
10:17 1008 29.77 837 24.72 -0.1 31.8 74 -4.3 24.3 0.205 0.008
10:18 1008 29.77 837 24.72 -0.1 31.8 76 -3.9 25 0.256 0.01
10:19 1008 29.77 837 24.72 -0.2 31.6 77 -3.8 25.2 0.12 0.005
10:20 1008 29.77 837 24.72 -0.4 31.3 78 -3.8 25.1 -0.09 -0.004
10:21 1008 29.77 837 24.72 -0.5 31 78 -3.9 25 -0.271 -0.011
10:22 1008 29.77 837 24.72 -0.7 30.7 79 -4 24.8 -0.395 -0.016
10:23 1008 29.77 837 24.72 -0.8 30.6 80 -3.8 25.1 -0.486 -0.019
10:24 1008 29.77 837 24.72 -0.8 30.6 80 -3.9 25 -0.509 -0.02
10:25 1008 29.77 837 24.72 -0.8 30.6 80 -3.9 25 -0.503 -0.02
10:26 1008 29.77 837 24.72 -0.8 30.6 79 -3.9 25 -0.463 -0.018
10:27 1008 29.77 837 24.72 -0.7 30.8 78 -4 24.9 -0.39 -0.015
10:28 1008 29.77 837 24.72 -0.7 30.8 79 -3.9 25 -0.367 -0.014
10:29 1008 29.77 837 24.72 -0.6 31 78 -3.9 25 -0.31 -0.012
10:30 1008 29.77 837 24.72 -0.5 31.1 78 -3.9 25 -0.327 -0.013
10:31 1008 29.77 837 24.72 -0.5 31.2 78 -3.8 25.2 -0.322 -0.013
10:32 1008 29.77 837 24.72 -0.4 31.2 78 -3.8 25.2 -0.329 -0.013
10:33 1008 29.77 837 24.72 -0.4 31.2 78 -3.8 25.1 -0.312 -0.012
10:34 1008 29.77 837 24.72 -0.4 31.3 78 -3.7 25.3 -0.289 -0.011
10:35 1008 29.77 837 24.72 -0.4 31.3 77 -3.8 25.1 -0.285 -0.011
10:36 1008 29.77 837 24.72 -0.4 31.3 77 -3.9 25 -0.285 -0.011
10:37 1008 29.77 837 24.72 -0.4 31.2 77 -4 24.9 -0.262 -0.01
10:38 1008 29.77 837 24.72 -0.5 31.1 78 -3.8 25.2 -0.257 -0.01
10:39 1008 29.77 837 24.72 -0.4 31.2 78 -3.8 25.1 -0.234 -0.009
10:40 1008 29.77 837 24.72 -0.4 31.3 78 -3.8 25.2 -0.235 -0.009
10:41 1008 29.77 837 24.72 -0.5 31.2 79 -3.7 25.3 -0.309 -0.012
10:42 1008 29.77 837 24.72 -0.4 31.2 78 -3.8 25.1 -0.275 -0.011
10:43 1008 29.77 837 24.72 -0.5 31.1 79 -3.8 25.2 -0.303 -0.012
10:44 1008 29.77 837 24.72 -0.5 31 79 -3.7 25.3 -0.315 -0.012
10:45 1008 29.77 837 24.72 -0.5 31.1 79 -3.8 25.2 -0.338 -0.013
10:46 1008 29.77 837 24.72 -0.6 31 79 -3.7 25.3 -0.383 -0.015
10:47 1008 29.77 837 24.72 -0.6 30.9 79 -3.7 25.3 -0.378 -0.015
10:48 1008 29.77 837 24.72 -0.5 31 79 -3.7 25.3 -0.366 -0.014
10:49 1008 29.77 837 24.72 -0.5 31.1 79 -3.7 25.3 -0.384 -0.015
10:50 1008 29.77 837 24.72 -0.5 31.1 79 -3.7 25.4 -0.333 -0.013
10:51 1008 29.77 837 24.72 -0.4 31.4 78 -3.7 25.3 -0.299 -0.012
10:52 1008 29.77 837 24.72 -0.4 31.3 79 -3.7 25.4 -0.288 -0.011
10:53 1008 29.77 837 24.72 -0.3 31.5 78 -3.6 25.5 -0.157 -0.006
10:54 1008 29.77 837 24.72 -0.2 31.6 77 -3.7 25.3 -0.112 -0.004
10:55 1008 29.77 837 24.72 -0.2 31.7 77 -3.8 25.2 -0.074 -0.003
10:56 1008 29.77 837 24.72 -0.2 31.7 77 -3.6 25.5 -0.006 -0
10:57 1008 29.77 837 24.72 -0.2 31.7 78 -3.6 25.5 0.034 0.001
10:58 1008 29.77 837 24.72 -0.1 31.8 76 -3.8 25.2 0.01 0
10:59 1008 29.77 837 24.72 -0.1 31.8 76 -3.8 25.1 0.021 0.001
11:00 1008 29.77 837 24.72 -0.1 31.9 76 -3.7 25.3 0.049 0.002
11:01 1008 29.77 837 24.72 0.1 32.1 77 -3.5 25.6 0.077 0.003
11:02 1008 29.77 837 24.72 0.2 32.3 75 -3.7 25.3 0.133 0.005
11:03 1008 29.77 837 24.72 0.4 32.7 75 -3.6 25.5 0.195 0.008
11:04 1008 29.77 837 24.72 0.5 33 74 -3.5 25.6 0.336 0.013
11:05 1008 29.77 837 24.72 0.8 33.4 72 -3.7 25.3 0.54 0.021
11:06 1008 29.77 837 24.72 0.8 33.4 73 -3.5 25.7 0.653 0.026
11:07 1008 29.77 837 24.72 0.8 33.4 73 -3.5 25.7 0.721 0.028
11:08 1008 29.77 837 24.72 0.8 33.5 72 -3.7 25.4 0.709 0.028
11:09 1008 29.77 837 24.72 0.7 33.3 74 -3.5 25.8 0.738 0.029
11:10 1008 29.77 837 24.72 0.7 33.3 73 -3.6 25.5 0.805 0.032
11:11 1008 29.77 837 24.72 0.8 33.4 73 -3.6 25.5 0.811 0.032
11:12 1008 29.77 837 24.72 0.7 33.3 72 -3.7 25.4 0.856 0.034
11:13 1008 29.77 837 24.72 0.8 33.5 72 -3.6 25.5 0.929 0.037
11:14 1008 29.77 837 24.72 0.9 33.5 72 -3.7 25.3 0.946 0.037
11:15 1008 29.77 837 24.72 0.9 33.6 72 -3.5 25.7 0.929 0.037
11:16 1008 29.77 837 24.72 0.9 33.6 71 -3.7 25.4 0.923 0.036
11:17 1008 29.77 837 24.72 0.9 33.6 72 -3.5 25.6 0.952 0.037
11:18 1008 29.77 837 24.72 0.9 33.6 72 -3.5 25.6 0.946 0.037
11:19 1008 29.77 837 24.72 0.7 33.3 73 -3.6 25.6 0.878 0.035
11:20 1008 29.77 837 24.72 0.7 33.3 73 -3.5 25.7 0.917 0.036
11:21 1008 29.77 837 24.72 0.8 33.5 73 -3.5 25.8 1.002 0.039
11:22 1008 29.77 837 24.72 1 33.7 72 -3.6 25.5 1.025 0.04
11:23 1008 29.77 837 24.72 1.1 34.1 72 -3.4 25.9 1.144 0.045
11:24 1008 29.77 837 24.72 1.1 34 72 -3.5 25.8 1.189 0.047
11:25 1008 29.77 837 24.72 1 33.8 71 -3.6 25.5 1.223 0.048
11:26 1008 29.77 837 24.72 1 33.8 72 -3.5 25.7 1.166 0.046
11:27 1008 29.77 837 24.72 1 33.9 72 -3.4 25.9 1.189 0.047
11:28 1008 29.77 837 24.72 1.2 34.1 72 -3.3 26 1.308 0.051
11:29 1008 29.77 837 24.72 1.5 34.7 69 -3.5 25.8 1.579 0.062
11:30 1008 29.77 837 24.72 1.6 35 69 -3.4 25.9 1.812 0.071
11:31 1008 29.77 837 24.72 1.8 35.2 68 -3.5 25.8 1.874 0.074
11:32 1008 29.77 837 24.72 1.7 35 69 -3.4 25.8 1.817 0.072
11:33 1008 29.77 837 24.72 1.6 35 69 -3.4 25.9 1.896 0.075
11:34 1008 29.77 837 24.72 1.8 35.2 68 -3.5 25.8 2.11 0.083
11:35 1008 29.77 837 24.72 1.9 35.5 67 -3.5 25.8 2.263 0.089
11:36 1008 29.77 837 24.72 2.2 35.9 67 -3.3 26.1 2.545 0.1
11:37 1008 29.77 837 24.72 2.4 36.4 66 -3.4 26 2.704 0.106
11:38 1008 29.77 837 24.72 2.4 36.3 66 -3.4 25.9 2.624 0.103
11:39 1008 29.77 837 24.72 2.3 36.2 66 -3.3 26 2.612 0.103
11:40 1008 29.77 837 24.72 2.5 36.5 66 -3.3 26 2.804 0.11
11:41 1008 29.77 837 24.72 2.7 36.9 64 -3.5 25.8 3.099 0.122
11:42 1008 29.77 837 24.72 2.7 36.9 64 -3.5 25.8 3.239 0.128
11:43 1008 29.77 837 24.72 2.7 36.9 63 -3.6 25.5 3.097 0.122
11:44 1008 29.77 837 24.72 2.6 36.6 65 -3.4 25.8 2.91 0.115
11:45 1008 29.77 837 24.72 2.3 36.2 65 -3.5 25.7 2.67 0.105
11:46 1008 29.77 837 24.72 2.1 35.8 66 -3.6 25.5 2.421 0.095
11:47 1008 29.77 837 24.72 2 35.6 67 -3.4 25.9 2.296 0.09
11:48 1008 29.77 837 24.72 1.9 35.3 68 -3.4 25.8 2.159 0.085
11:49 1008 29.77 837 24.72 1.7 35.1 69 -3.5 25.8 1.95 0.077
11:50 1008 29.77 837 24.72 1.6 34.9 70 -3.3 26 1.944 0.077
11:51 1008 29.77 837 24.72 1.6 34.9 70 -3.3 26 2.028 0.08
11:52 1008 29.77 837 24.72 1.7 35 69 -3.4 25.8 2.084 0.082
11:53 1008 29.77 837 24.72 1.7 35 69 -3.4 25.9 2.147 0.085
11:54 1008 29.77 837 24.72 1.6 35 69 -3.5 25.8 2.225 0.088
11:55 1008 29.77 837 24.72 1.7 35 68 -3.5 25.7 2.333 0.092
11:56 1008 29.77 837 24.72 1.8 35.2 67 -3.7 25.4 2.497 0.098
11:57 1008 29.77 837 24.72 1.8 35.3 67 -3.6 25.5 2.638 0.104
11:58 1008 29.77 837 24.72 1.9 35.4 68 -3.5 25.8 2.717 0.107
11:59 1008 29.77 837 24.72 1.9 35.4 69 -3.3 26.1 2.734 0.108
12:00 1008 29.77 837 24.72 1.7 35.1 68 -3.5 25.7 2.558 0.101
12:01 1008 29.77 837 24.72 1.5 34.8 70 -3.4 25.9 2.32 0.091
12:02 1008 29.77 837 24.72 1.4 34.6 69 -3.6 25.6 2.189 0.086
12:03 1008 29.77 837 24.72 1.3 34.3 71 -3.4 25.8 2.075 0.082
12:04 1008 29.77 837 24.72 1.2 34.2 71 -3.5 25.7 1.967 0.077
12:05 1008 29.77 837 24.72 1.2 34.1 72 -3.4 25.9 1.899 0.075
12:06 1008 29.77 837 24.72 1.1 34 72 -3.4 25.8 1.841 0.072
12:07 1008 29.77 837 24.72 1.1 33.9 73 -3.3 26 1.807 0.071
12:08 1008 29.77 837 24.72 1.1 33.9 72 -3.4 25.9 1.761 0.069
12:09 1008 29.77 837 24.72 1 33.9 72 -3.5 25.7 1.789 0.07
12:10 1008 29.77 837 24.72 1.1 34 72 -3.4 25.9 1.812 0.071
12:11 1008 29.77 837 24.72 1.3 34.3 71 -3.5 25.7 1.97 0.078
12:12 1008 29.77 837 24.72 1.3 34.3 69 -3.7 25.4 2.082 0.082
12:13 1008 29.77 837 24.72 1.5 34.7 70 -3.5 25.7 2.229 0.088
12:14 1008 29.77 837 24.72 1.7 35.1 67 -3.7 25.3 2.489 0.098
12:15 1008 29.77 837 24.72 1.8 35.2 67 -3.7 25.3 2.607 0.103
12:16 1008 29.77 837 24.72 1.8 35.3 67 -3.6 25.5 2.657 0.105
12:17 1008 29.77 837 24.72 1.9 35.3 67 -3.7 25.4 2.657 0.105
12:18 1008 29.77 837 24.72 1.9 35.4 69 -3.2 26.2 2.605 0.103
12:19 1008 29.77 837 24.72 1.8 35.3 66 -3.8 25.2 2.526 0.099
12:20 1008 29.77 837 24.72 1.8 35.3 67 -3.6 25.4 2.502 0.099
12:21 1008 29.77 837 24.72 2 35.5 66 -3.8 25.1 2.632 0.104
12:22 1008 29.77 837 24.72 2.1 35.8 65 -3.8 25.2 2.745 0.108
12:23 1008 29.77 837 24.72 2.3 36.2 64 -3.8 25.2 2.953 0.116
12:24 1007 29.74 837 24.72 2.6 36.6 64 -3.6 25.4 3.112 0.123
12:25 1007 29.74 837 24.72 2.5 36.5 64 -3.6 25.5 3.055 0.12
12:26 1007 29.74 837 24.72 2.4 36.3 65 -3.4 25.8 3.009 0.118
12:27 1007 29.74 837 24.72 2.3 36.2 65 -3.5 25.7 2.975 0.117
12:28 1007 29.74 837 24.72 2.3 36.1 65 -3.7 25.3 2.907 0.114
12:29 1007 29.74 837 24.72 2.3 36.1 65 -3.8 25.2 2.855 0.112
12:30 1007 29.74 837 24.72 2.2 35.9 64 -3.9 25 2.793 0.11
12:31 1007 29.74 837 24.72 2.1 35.9 65 -3.8 25.1 2.759 0.109
12:32 1007 29.74 837 24.72 2.2 35.9 64 -4 24.9 2.826 0.111
12:33 1007 29.74 837 24.72 2.1 35.8 66 -3.6 25.5 2.792 0.11
12:34 1007 29.74 837 24.72 2.3 36.2 65 -3.7 25.4 2.957 0.116
12:35 1007 29.74 837 24.72 2.4 36.4 64 -3.7 25.4 3.069 0.121
12:36 1007 29.74 837 24.72 2.6 36.6 64 -3.5 25.7 3.194 0.126
12:37 1007 29.74 837 24.72 2.6 36.7 64 -3.6 25.6 3.33 0.131
12:38 1007 29.74 837 24.72 2.8 37 63 -3.6 25.6 3.482 0.137
12:39 1007 29.74 837 24.72 3.1 37.5 63 -3.4 26 3.759 0.148
12:40 1007 29.74 837 24.72 3.5 38.2 63 -3 26.6 4.121 0.162
12:41 1007 29.74 837 24.72 3.9 39 59 -3.5 25.8 4.5 0.177
12:42 1007 29.74 837 24.72 4 39.2 57 -3.7 25.4 4.681 0.184
12:43 1007 29.74 837 24.72 4 39.2 57 -3.8 25.1 4.642 0.183
12:44 1007 29.74 837 24.72 3.8 38.8 58 -3.7 25.4 4.353 0.171
12:45 1007 29.74 837 24.72 3.3 38 61 -3.4 25.9 3.985 0.157
12:46 1007 29.74 837 24.72 2.9 37.3 63 -3.5 25.8 3.634 0.143
12:47 1007 29.74 837 24.72 2.7 36.8 65 -3.2 26.2 3.323 0.131
12:48 1007 29.74 837 24.72 2.5 36.5 65 -3.4 25.9 3.153 0.124
12:49 1007 29.74 837 24.72 2.6 36.7 64 -3.6 25.5 3.159 0.124
12:50 1007 29.74 837 24.72 2.6 36.8 62 -3.9 24.9 3.091 0.122
12:51 1007 29.74 837 24.72 2.6 36.6 63 -3.7 25.3 2.921 0.115
12:52 1007 29.74 837 24.72 2.5 36.5 65 -3.4 25.9 2.898 0.114
12:53 1007 29.74 837 24.72 2.5 36.5 66 -3.3 26.1 2.926 0.115
12:54 1007 29.74 837 24.72 2.4 36.3 65 -3.6 25.6 2.921 0.115
12:55 1007 29.74 837 24.72 2.5 36.4 66 -3.3 26 3 0.118
12:56 1007 29.74 837 24.72 2.4 36.4 65 -3.5 25.7 3.096 0.122
12:57 1007 29.74 837 24.72 2.5 36.4 65 -3.5 25.6 3.102 0.122
12:58 1007 29.74 836 24.69 2.4 36.3 66 -3.2 26.2 3.073 0.121
12:59 1007 29.74 837 24.72 2.4 36.3 65 -3.5 25.7 2.994 0.118
13:00 1007 29.74 837 24.72 2.4 36.4 67 -3 26.6 2.96 0.117
13:01 1007 29.74 836 24.69 2.4 36.4 66 -3.3 26 2.943 0.116
13:02 1007 29.74 836 24.69 2.4 36.4 65 -3.4 25.9 2.943 0.116
13:03 1007 29.74 836 24.69 2.4 36.3 65 -3.6 25.5 2.954 0.116
13:04 1007 29.74 836 24.69 2.3 36.2 66 -3.4 25.9 2.841 0.112
13:05 1007 29.74 836 24.69 2.2 36 65 -3.6 25.5 2.796 0.11
13:06 1007 29.74 836 24.69 2.2 35.9 66 -3.5 25.7 2.7 0.106
13:07 1007 29.74 836 24.69 2.1 35.7 66 -3.7 25.3 2.626 0.103
13:08 1007 29.74 836 24.69 2.1 35.7 66 -3.5 25.7 2.586 0.102
13:09 1007 29.74 836 24.69 2.1 35.7 68 -3.2 26.2 2.615 0.103
13:10 1007 29.74 836 24.69 2 35.6 67 -3.5 25.8 2.608 0.103
13:11 1007 29.74 836 24.69 2 35.5 68 -3.4 25.9 2.54 0.1
13:12 1007 29.74 836 24.69 1.9 35.4 69 -3.3 26.1 2.54 0.1
13:13 1007 29.74 836 24.69 1.9 35.5 70 -3 26.6 2.58 0.102
13:14 1007 29.74 836 24.69 2.1 35.7 68 -3.2 26.3 2.619 0.103
13:15 1007 29.74 836 24.69 2.1 35.9 66 -3.5 25.6 2.738 0.108
13:16 1007 29.74 836 24.69 2.2 36 66 -3.4 25.9 2.833 0.112
13:17 1007 29.74 836 24.69 2.3 36.1 67 -3.2 26.3 2.867 0.113
13:18 1007 29.74 836 24.69 2.2 36 69 -3 26.7 2.839 0.112
13:19 1007 29.74 837 24.72 2.2 36 68 -3.2 26.3 2.862 0.113
13:20 1007 29.74 836 24.69 2.2 35.9 66 -3.5 25.8 2.794 0.11
13:21 1007 29.74 836 24.69 2.2 35.9 67 -3.3 26.1 2.777 0.109
13:22 1007 29.74 836 24.69 2.2 35.9 66 -3.5 25.8 2.821 0.111
13:23 1007 29.74 836 24.69 2.2 36 67 -3.4 26 2.912 0.115
13:24 1007 29.74 836 24.69 2.3 36.2 66 -3.3 26 3.008 0.118
13:25 1007 29.74 836 24.69 2.4 36.2 67 -3.2 26.3 3.042 0.12
13:26 1007 29.74 836 24.69 2.5 36.5 65 -3.4 25.8 3.059 0.12
13:27 1007 29.74 836 24.69 2.6 36.6 65 -3.3 26.1 3.059 0.12
13:28 1007 29.74 836 24.69 2.6 36.7 65 -3.3 26.1 3.026 0.119
13:29 1007 29.74 836 24.69 2.7 36.9 64 -3.3 26 3.065 0.121
13:30 1007 29.74 836 24.69 2.8 37 64 -3.3 26 3.054 0.12
13:31 1007 29.74 836 24.69 2.7 36.8 65 -3.3 26 2.975 0.117
13:32 1007 29.74 836 24.69 2.7 36.8 64 -3.5 25.7 2.885 0.114
13:33 1007 29.74 836 24.69 2.7 36.8 66 -3.1 26.5 2.885 0.114
13:34 1007 29.74 836 24.69 2.7 36.9 66 -3.1 26.5 2.93 0.115
13:35 1007 29.74 836 24.69 2.7 36.9 66 -2.9 26.7 2.925 0.115
13:36 1007 29.74 836 24.69 2.7 36.9 66 -2.9 26.7 3.01 0.119
13:37 1007 29.74 836 24.69 2.7 36.9 66 -3 26.6 2.998 0.118
13:38 1007 29.74 836 24.69 2.8 37 64 -3.5 25.7 3.027 0.119
13:39 1007 29.74 836 24.69 2.8 37 65 -3.2 26.3 3.038 0.12
13:40 1007 29.74 836 24.69 2.8 37.1 65 -3.1 26.5 3.072 0.121
13:41 1007 29.74 836 24.69 2.9 37.1 66 -2.9 26.8 3.089 0.122
13:42 1007 29.74 836 24.69 2.8 37.1 67 -2.8 27 3.055 0.12
13:43 1007 29.74 836 24.69 2.9 37.1 66 -2.8 26.9 3.084 0.121
13:44 1007 29.74 836 24.69 2.8 37 66 -3 26.7 2.993 0.118
13:45 1007 29.74 836 24.69 2.7 36.8 64 -3.4 25.9 2.863 0.113
13:46 1007 29.74 836 24.69 2.5 36.6 67 -3 26.5 2.75 0.108
13:47 1007 29.74 836 24.69 2.4 36.3 67 -3 26.6 2.642 0.104
13:48 1007 29.74 836 24.69 2.3 36.1 69 -2.9 26.8 2.58 0.102
13:49 1007 29.74 836 24.69 2.2 36 68 -3.2 26.3 2.484 0.098
13:50 1007 29.74 836 24.69 2.1 35.7 69 -3.1 26.5 2.405 0.095
13:51 1007 29.74 836 24.69 2 35.6 69 -3.1 26.5 2.326 0.092
13:52 1007 29.74 836 24.69 1.9 35.5 69 -3.1 26.4 2.263 0.089
13:53 1007 29.74 836 24.69 1.9 35.4 69 -3.2 26.2 2.28 0.09
13:54 1007 29.74 836 24.69 1.9 35.4 70 -3.1 26.4 2.286 0.09
13:55 1007 29.74 836 24.69 1.9 35.4 69 -3.2 26.3 2.303 0.091
13:56 1007 29.74 836 24.69 1.9 35.4 71 -2.8 26.9 2.269 0.089
13:57 1007 29.74 836 24.69 1.9 35.5 70 -3 26.5 2.292 0.09
13:58 1007 29.74 836 24.69 1.9 35.5 70 -3 26.6 2.297 0.09
13:59 1007 29.74 836 24.69 2 35.5 70 -2.9 26.7 2.337 0.092
14:00 1007 29.74 836 24.69 2 35.6 71 -2.7 27.1 2.377 0.094
14:01 1007 29.74 836 24.69 2 35.6 70 -2.9 26.8 2.394 0.094
14:02 1007 29.74 836 24.69 2 35.6 71 -2.8 27 2.388 0.094
14:03 1007 29.74 836 24.69 2 35.7 72 -2.6 27.4 2.445 0.096
14:04 1007 29.74 836 24.69 2.1 35.7 70 -2.8 27 2.479 0.098
14:05 1007 29.74 836 24.69 2.1 35.8 70 -2.8 27 2.518 0.099
14:06 1007 29.74 836 24.69 2 35.6 71 -2.7 27.1 2.524 0.099
14:07 1007 29.74 836 24.69 2.1 35.7 71 -2.6 27.3 2.484 0.098
14:08 1007 29.74 836 24.69 2 35.6 72 -2.6 27.3 2.49 0.098
14:09 1007 29.74 836 24.69 2 35.6 71 -2.8 27 2.484 0.098
14:10 1007 29.74 836 24.69 2 35.6 71 -2.7 27.2 2.484 0.098
14:11 1007 29.74 836 24.69 2 35.6 71 -2.8 27 2.462 0.097
14:12 1007 29.74 836 24.69 2 35.6 72 -2.6 27.3 2.501 0.098
14:13 1007 29.74 836 24.69 2 35.6 72 -2.6 27.4 2.496 0.098
14:14 1007 29.74 836 24.69 2.1 35.7 72 -2.4 27.7 2.462 0.097
14:15 1007 29.74 836 24.69 2.1 35.7 71 -2.7 27.2 2.445 0.096
14:16 1007 29.74 836 24.69 2 35.6 71 -2.6 27.3 2.399 0.094
14:17 1007 29.74 836 24.69 1.9 35.5 71 -2.7 27.1 2.298 0.09
14:18 1007 29.74 836 24.69 1.9 35.4 73 -2.5 27.4 2.258 0.089
14:19 1007 29.74 836 24.69 1.9 35.5 72 -2.6 27.3 2.281 0.09
14:20 1007 29.74 836 24.69 1.9 35.5 72 -2.5 27.4 2.315 0.091
14:21 1007 29.74 836 24.69 2 35.6 71 -2.7 27.2 2.366 0.093
14:22 1007 29.74 836 24.69 2.1 35.7 71 -2.6 27.2 2.399 0.094
14:23 1007 29.74 836 24.69 2.1 35.7 71 -2.6 27.3 2.462 0.097
14:24 1007 29.74 836 24.69 2.2 35.9 72 -2.4 27.6 2.541 0.1
14:25 1007 29.74 836 24.69 2.3 36.1 71 -2.4 27.7 2.694 0.106
14:26 1007 29.74 836 24.69 2.4 36.3 71 -2.3 27.9 2.864 0.113
14:27 1007 29.74 836 24.69 2.4 36.4 72 -2.2 28.1 2.892 0.114
14:28 1007 29.74 836 24.69 2.5 36.4 73 -1.9 28.7 2.92 0.115
14:29 1007 29.74 836 24.69 2.5 36.5 72 -2 28.4 2.977 0.117
14:30 1007 29.74 836 24.69 2.6 36.6 72 -2 28.5 2.982 0.117
14:31 1007 29.74 836 24.69 2.6 36.8 71 -2.1 28.3 3.022 0.119
14:32 1007 29.74 836 24.69 2.6 36.7 71 -2.2 28.1 3.005 0.118
14:33 1007 29.74 836 24.69 2.7 36.8 72 -2 28.5 2.971 0.117
14:34 1007 29.74 836 24.69 2.7 36.8 71 -2.2 28.1 2.977 0.117
14:35 1007 29.74 836 24.69 2.6 36.7 71 -2 28.3 2.892 0.114
14:36 1007 29.74 836 24.69 2.6 36.7 71 -2.1 28.3 2.886 0.114
14:37 1007 29.74 836 24.69 2.6 36.7 71 -2.1 28.3 2.852 0.112
14:38 1007 29.74 836 24.69 2.7 36.8 72 -1.9 28.5 2.971 0.117
14:39 1007 29.74 836 24.69 2.7 36.9 70 -2.2 28.1 2.971 0.117
14:40 1007 29.74 836 24.69 2.7 36.9 72 -1.9 28.6 2.988 0.118
14:41 1007 29.74 836 24.69 2.8 37.1 71 -2 28.4 3.033 0.119
14:42 1007 29.74 836 24.69 2.8 37.1 71 -2 28.4 3.073 0.121
14:43 1007 29.74 836 24.69 2.8 37.1 72 -1.7 29 3.113 0.123
14:44 1007 29.74 836 24.69 2.9 37.2 72 -1.7 28.9 3.141 0.124
14:45 1007 29.74 836 24.69 2.9 37.2 72 -1.7 29 3.186 0.125
14:46 1007 29.74 836 24.69 2.9 37.3 72 -1.6 29.1 3.22 0.127
14:47 1007 29.74 836 24.69 3 37.3 73 -1.5 29.3 3.299 0.13
14:48 1007 29.74 836 24.69 2.8 37 73 -1.6 29.1 3.214 0.127
14:49 1007 29.74 836 24.69 2.6 36.6 74 -1.7 29 3.096 0.122
14:50 1007 29.74 836 24.69 2.5 36.5 75 -1.4 29.4 3.016 0.119
14:51 1007 29.74 836 24.69 2.5 36.4 74 -1.7 28.9 2.926 0.115
14:52 1007 29.74 836 24.69 2.4 36.3 74 -1.7 28.9 2.83 0.111
14:53 1007 29.74 836 24.69 2.4 36.3 75 -1.6 29.1 2.79 0.11
14:54 1007 29.74 836 24.69 2.3 36.2 75 -1.7 28.9 2.716 0.107
14:55 1007 29.74 836 24.69 2.3 36.1 75 -1.6 29 2.699 0.106
14:56 1007 29.74 836 24.69 2.2 36 76 -1.6 29.1 2.66 0.105
14:57 1007 29.74 836 24.69 2.2 36 77 -1.4 29.5 2.62 0.103
14:58 1007 29.74 836 24.69 2.2 35.9 77 -1.5 29.3 2.581 0.102
14:59 1007 29.74 836 24.69 2.1 35.7 76 -1.7 29 2.558 0.101
15:00 1007 29.74 836 24.69 2 35.7 76 -1.8 28.7 2.513 0.099
15:01 1007 29.74 836 24.69 2 35.6 76 -1.8 28.8 2.456 0.097
15:02 1007 29.74 836 24.69 2 35.5 76 -1.9 28.6 2.439 0.096
15:03 1007 29.74 836 24.69 1.9 35.4 76 -1.8 28.7 2.4 0.094
15:04 1007 29.74 836 24.69 1.9 35.4 76 -1.9 28.6 2.343 0.092
15:05 1007 29.74 836 24.69 1.9 35.4 77 -1.8 28.8 2.337 0.092
15:06 1007 29.74 836 24.69 1.9 35.4 76 -1.9 28.6 2.377 0.094
15:07 1007 29.74 836 24.69 1.9 35.4 76 -1.9 28.5 2.354 0.093
15:08 1007 29.74 836 24.69 1.9 35.4 77 -1.8 28.8 2.315 0.091
15:09 1007 29.74 836 24.69 1.9 35.4 76 -1.8 28.7 2.32 0.091
15:10 1007 29.74 836 24.69 2 35.6 76 -1.8 28.8 2.4 0.094
15:11 1007 29.74 836 24.69 2 35.6 77 -1.6 29.1 2.496 0.098
15:12 1007 29.74 836 24.69 2 35.6 77 -1.5 29.3 2.547 0.1
15:13 1007 29.74 836 24.69 2.1 35.7 77 -1.5 29.3 2.626 0.103
15:14 1007 29.74 836 24.69 2.1 35.8 77 -1.5 29.3 2.694 0.106
15:15 1007 29.74 836 24.69 2.2 35.9 77 -1.5 29.3 2.722 0.107
15:16 1007 29.74 836 24.69 2.1 35.8 77 -1.4 29.4 2.739 0.108
15:17 1007 29.74 836 24.69 2.2 35.9 76 -1.6 29.1 2.773 0.109
15:18 1007 29.74 836 24.69 2.2 35.9 77 -1.4 29.4 2.779 0.109
15:19 1007 29.74 836 24.69 2.2 35.9 76 -1.6 29 2.784 0.11
15:20 1007 29.74 836 24.69 2.2 36 76 -1.6 29.1 2.796 0.11
15:21 1007 29.74 836 24.69 2.2 36 77 -1.5 29.3 2.711 0.107
15:22 1007 29.74 836 24.69 2.2 36 76 -1.5 29.3 2.654 0.104
15:23 1007 29.74 836 24.69 2.2 36 77 -1.4 29.4 2.632 0.104
15:24 1007 29.74 836 24.69 2.2 36 77 -1.4 29.4 2.615 0.103
15:25 1007 29.74 836 24.69 2.2 36 77 -1.4 29.6 2.569 0.101
15:26 1007 29.74 836 24.69 2.2 36 77 -1.4 29.5 2.586 0.102
15:27 1007 29.74 836 24.69 2.4 36.2 77 -1.3 29.6 2.699 0.106
15:28 1007 29.74 836 24.69 2.5 36.5 75 -1.5 29.3 2.824 0.111
15:29 1007 29.74 836 24.69 2.6 36.6 76 -1.3 29.7 2.898 0.114
15:30 1007 29.74 836 24.69 2.6 36.7 75 -1.4 29.5 2.875 0.113
15:31 1007 29.74 836 24.69 2.5 36.5 75 -1.5 29.2 2.864 0.113
15:32 1007 29.74 836 24.69 2.5 36.4 76 -1.3 29.6 2.824 0.111
15:33 1007 29.74 836 24.69 2.5 36.4 75 -1.4 29.4 2.807 0.111
15:34 1007 29.74 836 24.69 2.5 36.4 75 -1.5 29.3 2.841 0.112
15:35 1007 29.74 836 24.69 2.5 36.4 76 -1.4 29.5 2.864 0.113
15:36 1007 29.74 836 24.69 2.5 36.5 75 -1.5 29.3 2.892 0.114
15:37 1007 29.74 836 24.69 2.5 36.5 75 -1.5 29.3 2.892 0.114
15:38 1007 29.74 836 24.69 2.6 36.6 76 -1.3 29.7 2.965 0.117
15:39 1007 29.74 836 24.69 2.6 36.7 75 -1.4 29.5 2.965 0.117
15:40 1007 29.74 836 24.69 2.6 36.6 75 -1.4 29.5 2.977 0.117
15:41 1007 29.74 836 24.69 2.7 36.8 75 -1.4 29.5 3.022 0.119
15:42 1007 29.74 836 24.69 2.6 36.7 75 -1.3 29.6 3.011 0.119
15:43 1007 29.74 836 24.69 2.7 36.8 75 -1.3 29.7 3.005 0.118
15:44 1007 29.74 836 24.69 2.6 36.6 75 -1.5 29.3 2.977 0.117
15:45 1007 29.74 836 24.69 2.6 36.7 74 -1.6 29.2 2.965 0.117
15:46 1007 29.74 836 24.69 2.7 36.8 73 -1.6 29.1 3.005 0.118
15:47 1007 29.74 836 24.69 2.7 36.8 75 -1.4 29.5 3.016 0.119
15:48 1007 29.74 836 24.69 2.6 36.8 75 -1.4 29.5 3.016 0.119
15:49 1007 29.74 836 24.69 2.6 36.7 74 -1.5 29.3 2.971 0.117
15:50 1007 29.74 836 24.69 2.5 36.6 75 -1.5 29.2 2.835 0.112
15:51 1007 29.74 836 24.69 2.4 36.4 75 -1.6 29.2 2.784 0.11
15:52 1007 29.74 836 24.69 2.4 36.3 75 -1.5 29.2 2.728 0.107
15:53 1007 29.74 836 24.69 2.4 36.3 76 -1.4 29.5 2.722 0.107
15:54 1007 29.74 836 24.69 2.3 36.2 76 -1.5 29.2 2.688 0.106
15:55 1007 29.74 836 24.69 2.3 36.1 76 -1.6 29.1 2.643 0.104
15:56 1007 29.74 836 24.69 2.2 36 76 -1.5 29.2 2.569 0.101
15:57 1007 29.74 836 24.69 2.2 35.9 76 -1.6 29.2 2.473 0.097
15:58 1007 29.74 836 24.69 2.1 35.7 77 -1.6 29.1 2.417 0.095
15:59 1007 29.74 836 24.69 2 35.6 77 -1.6 29.1 2.4 0.094
16:00 1007 29.74 836 24.69 2 35.5 77 -1.7 29 2.332 0.092
16:01 1007 29.74 836 24.69 1.9 35.4 78 -1.6 29.2 2.264 0.089
16:02 1007 29.74 836 24.69 1.9 35.4 77 -1.7 28.9 2.292 0.09
16:03 1007 29.74 836 24.69 2 35.5 78 -1.6 29.2 2.309 0.091
16:04 1007 29.74 836 24.69 2 35.6 77 -1.6 29.1 2.349 0.092
16:05 1007 29.74 836 24.69 2 35.5 77 -1.6 29.2 2.354 0.093
16:06 1007 29.74 836 24.69 2 35.7 77 -1.5 29.2 2.433 0.096
16:07 1007 29.74 836 24.69 2.1 35.8 77 -1.6 29.2 2.467 0.097
16:08 1007 29.74 836 24.69 2.1 35.7 77 -1.5 29.3 2.45 0.096
16:09 1007 29.74 836 24.69 2 35.6 77 -1.6 29.2 2.411 0.095
16:10 1007 29.74 836 24.69 2.1 35.7 78 -1.4 29.4 2.445 0.096
16:11 1007 29.74 836 24.69 2.1 35.7 77 -1.5 29.2 2.484 0.098
16:12 1007 29.74 836 24.69 2.1 35.8 77 -1.6 29.2 2.513 0.099
16:13 1007 29.74 836 24.69 2.1 35.8 77 -1.5 29.3 2.484 0.098
16:14 1007 29.74 836 24.69 2.1 35.7 76 -1.7 28.9 2.49 0.098
16:15 1007 29.74 836 24.69 2.2 35.9 76 -1.6 29.2 2.547 0.1
16:16 1007 29.74 836 24.69 2.2 35.9 76 -1.6 29.1 2.564 0.101
16:17 1007 29.74 836 24.69 2.2 36 76 -1.6 29.2 2.547 0.1
16:18 1007 29.74 836 24.69 2.2 36 76 -1.6 29.1 2.541 0.1
16:19 1007 29.74 836 24.69 2.2 35.9 76 -1.6 29.1 2.564 0.101
16:20 1007 29.74 836 24.69 2.2 35.9 77 -1.5 29.3 2.569 0.101
16:21 1007 29.74 836 24.69 2.2 36 76 -1.6 29.1 2.62 0.103
16:22 1007 29.74 836 24.69 2.3 36.1 75 -1.7 28.9 2.654 0.104
16:23 1007 29.74 836 24.69 2.3 36.1 75 -1.6 29 2.626 0.103
16:24 1007 29.74 836 24.69 2.3 36.1 76 -1.6 29.1 2.633 0.104
16:25 1007 29.74 836 24.69 2.3 36.2 76 -1.5 29.3 2.712 0.107
16:26 1007 29.74 836 24.69 2.4 36.2 75 -1.7 28.9 2.774 0.109
16:27 1007 29.74 836 24.69 2.3 36.2 75 -1.7 28.9 2.769 0.109
16:28 1007 29.74 836 24.69 2.3 36.1 76 -1.6 29.1 2.695 0.106
16:29 1007 29.74 836 24.69 2.3 36.1 76 -1.5 29.4 2.673 0.105
16:30 1007 29.74 836 24.69 2.2 35.9 76 -1.6 29.1 2.56 0.101
16:31 1007 29.74 836 24.69 2.1 35.8 76 -1.8 28.8 2.47 0.097
16:32 1007 29.74 836 24.69 2.1 35.7 77 -1.6 29.2 2.436 0.096
16:33 1007 29.74 836 24.69 2 35.6 76 -1.8 28.8 2.442 0.096
16:34 1007 29.74 836 24.69 2 35.6 76 -1.8 28.7 2.403 0.095
16:35 1007 29.74 836 24.69 2 35.5 76 -1.9 28.6 2.381 0.094
16:36 1007 29.74 836 24.69 2 35.5 76 -1.8 28.7 2.392 0.094
16:37 1007 29.74 836 24.69 2 35.6 75 -2 28.4 2.392 0.094
16:38 1007 29.74 836 24.69 2 35.5 74 -2.1 28.2 2.37 0.093
16:39 1007 29.74 836 24.69 2 35.6 75 -2 28.4 2.393 0.094
16:40 1007 29.74 836 24.69 2 35.7 75 -2 28.4 2.399 0.094
16:41 1007 29.74 836 24.69 2.1 35.7 75 -1.9 28.5 2.438 0.096
16:42 1007 29.74 836 24.69 2.1 35.7 75 -1.9 28.5 2.478 0.098
16:43 1007 29.74 836 24.69 2.2 35.9 75 -1.8 28.7 2.535 0.1
16:44 1007 29.74 836 24.69 2.2 35.9 75 -1.7 28.9 2.558 0.101
16:45 1007 29.74 836 24.69 2.1 35.8 75 -1.9 28.6 2.518 0.099
16:46 1007 29.74 836 24.69 2.1 35.7 74 -2.1 28.2 2.416 0.095
16:47 1007 29.74 836 24.69 1.9 35.5 75 -2.1 28.3 2.253 0.089
16:48 1007 29.74 836 24.69 1.8 35.3 76 -2 28.3 2.202 0.087
16:49 1007 29.74 836 24.69 1.8 35.2 76 -2 28.3 2.179 0.086
16:50 1007 29.74 836 24.69 1.8 35.2 75 -2.1 28.2 2.111 0.083
16:51 1007 29.74 836 24.69 1.7 35.1 76 -2 28.3 2.089 0.082
16:52 1007 29.74 836 24.69 1.8 35.2 76 -2 28.5 2.055 0.081
16:53 1007 29.74 836 24.69 1.7 35.1 76 -2.1 28.2 2.134 0.084
16:54 1007 29.74 836 24.69 1.8 35.2 75 -2.2 28.1 2.089 0.082
16:55 1007 29.74 836 24.69 1.7 35.1 76 -2.1 28.3 2.112 0.083
16:56 1007 29.74 836 24.69 1.7 35.1 76 -2.1 28.2 2.089 0.082
16:57 1007 29.74 836 24.69 1.7 35.1 76 -2 28.3 2.095 0.082
16:58 1007 29.74 836 24.69 1.7 35 75 -2.2 28 2.112 0.083
16:59 1007 29.74 836 24.69 1.7 35 76 -2.2 28.1 2.067 0.081
17:00 1007 29.74 836 24.69 1.7 35 76 -2.1 28.2 2.061 0.081
17:01 1007 29.74 836 24.69 1.6 34.9 77 -2 28.3 2.05 0.081
17:02 1007 29.74 836 24.69 1.7 35 75 -2.2 28 2.05 0.081
17:03 1007 29.74 836 24.69 1.6 35 77 -1.9 28.6 2.016 0.079
17:04 1007 29.74 836 24.69 1.6 34.9 76 -2.2 28.1 1.954 0.077
17:05 1007 29.74 836 24.69 1.6 34.8 76 -2.2 28 1.982 0.078
17:06 1007 29.74 836 24.69 1.6 34.9 77 -2.1 28.3 1.999 0.079
17:07 1007 29.74 837 24.72 1.6 34.8 77 -2.1 28.3 2.038 0.08
17:08 1007 29.74 837 24.72 1.6 34.8 76 -2.2 28 2.044 0.08
17:09 1007 29.74 837 24.72 1.6 34.8 77 -2 28.5 2.039 0.08
17:10 1007 29.74 836 24.69 1.5 34.7 77 -2 28.3 2.022 0.08
17:11 1007 29.74 837 24.72 1.4 34.6 77 -2.1 28.2 1.937 0.076
17:12 1007 29.74 837 24.72 1.4 34.5 77 -2.2 28.1 1.863 0.073
17:13 1007 29.74 837 24.72 1.4 34.5 78 -2 28.4 1.88 0.074
17:14 1007 29.74 837 24.72 1.4 34.5 78 -2.1 28.2 1.852 0.073
17:15 1007 29.74 837 24.72 1.4 34.4 79 -1.9 28.6 1.829 0.072
17:16 1007 29.74 837 24.72 1.4 34.4 78 -2.1 28.3 1.852 0.073
17:17 1007 29.74 837 24.72 1.3 34.4 79 -1.9 28.6 1.807 0.071
17:18 1007 29.74 837 24.72 1.3 34.3 78 -2.2 28.1 1.801 0.071
17:19 1007 29.74 837 24.72 1.3 34.4 79 -1.9 28.5 1.83 0.072
17:20 1007 29.74 837 24.72 1.4 34.4 80 -1.8 28.8 1.87 0.074
17:21 1007 29.74 837 24.72 1.4 34.4 79 -1.8 28.7 1.819 0.072
17:22 1007 29.74 837 24.72 1.4 34.5 79 -1.9 28.5 1.842 0.073
17:23 1008 29.77 837 24.72 1.4 34.5 79 -1.9 28.6 1.904 0.075
17:24 1007 29.74 837 24.72 1.5 34.6 78 -2 28.5 1.949 0.077
17:25 1007 29.74 837 24.72 1.5 34.7 77 -2.1 28.3 1.967 0.077
17:26 1007 29.74 837 24.72 1.5 34.8 77 -2.1 28.3 1.979 0.078
17:27 1008 29.77 837 24.72 1.5 34.8 77 -2 28.4 2.024 0.08
17:28 1008 29.77 837 24.72 1.6 34.8 77 -2 28.4 2.002 0.079
17:29 1008 29.77 837 24.72 1.6 34.8 78 -1.9 28.6 1.991 0.078
17:30 1008 29.77 837 24.72 1.5 34.8 78 -1.9 28.6 1.997 0.079
17:31 1008 29.77 837 24.72 1.5 34.7 79 -1.8 28.7 1.969 0.078
17:32 1008 29.77 837 24.72 1.5 34.8 78 -1.9 28.5 1.986 0.078
17:33 1008 29.77 837 24.72 1.6 34.8 77 -2 28.3 2.009 0.079
17:34 1008 29.77 837 24.72 1.6 34.8 77 -2 28.4 1.992 0.078
17:35 1008 29.77 837 24.72 1.5 34.8 77 -2 28.4 1.976 0.078
17:36 1008 29.77 837 24.72 1.5 34.7 77 -2.1 28.3 1.959 0.077
17:37 1008 29.77 837 24.72 1.5 34.7 77 -2.1 28.2 1.936 0.076
17:38 1008 29.77 837 24.72 1.5 34.7 77 -2.2 28.1 1.948 0.077
17:39 1008 29.77 837 24.72 1.5 34.7 76 -2.2 28 1.931 0.076
17:40 1008 29.77 837 24.72 1.5 34.7 77 -2.1 28.3 1.942 0.076
17:41 1008 29.77 837 24.72 1.5 34.7 77 -2 28.3 1.903 0.075
17:42 1008 29.77 837 24.72 1.5 34.6 78 -2 28.3 1.897 0.075
17:43 1008 29.77 837 24.72 1.5 34.6 77 -2.2 28.1 1.897 0.075
17:44 1008 29.77 837 24.72 1.4 34.6 78 -2 28.4 1.852 0.073
17:45 1008 29.77 837 24.72 1.4 34.5 78 -2 28.4 1.835 0.072
17:46 1008 29.77 837 24.72 1.4 34.5 78 -2.1 28.2 1.796 0.071
17:47 1008 29.77 837 24.72 1.3 34.4 78 -2 28.3 1.756 0.069
17:48 1008 29.77 837 24.72 1.2 34.2 79 -2 28.4 1.711 0.067
17:49 1008 29.77 837 24.72 1.2 34.2 80 -1.9 28.5 1.672 0.066
17:50 1008 29.77 837 24.72 1.1 34.1 80 -1.9 28.7 1.57 0.062
17:51 1008 29.77 837 24.72 1.1 34 82 -1.7 28.9 1.575 0.062
17:52 1008 29.77 837 24.72 1.1 33.9 81 -1.8 28.8 1.519 0.06
17:53 1008 29.77 837 24.72 1.1 33.9 81 -1.8 28.7 1.485 0.058
17:54 1008 29.77 837 24.72 1 33.8 80 -2 28.4 1.491 0.059
17:55 1008 29.77 837 24.72 1.1 33.9 81 -1.8 28.8 1.479 0.058
17:56 1008 29.77 837 24.72 1 33.8 82 -1.7 29 1.451 0.057
17:57 1008 29.77 837 24.72 1 33.8 82 -1.8 28.8 1.406 0.055
17:58 1008 29.77 837 24.72 1.1 34 81 -1.7 28.9 1.53 0.06
17:59 1008 29.77 837 24.72 1.2 34.2 82 -1.5 29.3 1.593 0.063
18:00 1008 29.77 837 24.72 1.1 34 83 -1.5 29.2 1.564 0.062
18:01 1008 29.77 837 24.72 1.1 33.9 83 -1.5 29.3 1.53 0.06
18:02 1008 29.77 837 24.72 1.1 33.9 82 -1.7 28.9 1.513 0.06
18:03 1008 29.77 837 24.72 1.1 34 82 -1.6 29.1 1.542 0.061
18:04 1008 29.77 837 24.72 1.1 34 82 -1.6 29.2 1.508 0.059
18:05 1008 29.77 837 24.72 1 33.8 83 -1.6 29.1 1.446 0.057
18:06 1008 29.77 837 24.72 1 33.8 82 -1.7 29 1.451 0.057
18:07 1008 29.77 837 24.72 1 33.8 84 -1.4 29.4 1.406 0.055
18:08 1008 29.77 837 24.72 0.9 33.6 85 -1.3 29.6 1.338 0.053
18:09 1008 29.77 837 24.72 0.8 33.5 86 -1.3 29.7 1.265 0.05
18:10 1008 29.77 837 24.72 0.8 33.4 86 -1.2 29.8 1.202 0.047
18:11 1008 29.77 837 24.72 0.8 33.4 86 -1.3 29.7 1.191 0.047
18:12 1008 29.77 837 24.72 0.8 33.4 86 -1.4 29.6 1.287 0.051
18:13 1008 29.77 837 24.72 0.8 33.5 85 -1.4 29.5 1.27 0.05
18:14 1008 29.77 837 24.72 0.9 33.5 85 -1.3 29.6 1.287 0.051
18:15 1008 29.77 837 24.72 0.8 33.5 86 -1.3 29.6 1.299 0.051
18:16 1008 29.77 838 24.75 0.9 33.6 85 -1.3 29.6 1.316 0.052
18:17 1008 29.77 838 24.75 0.9 33.6 85 -1.4 29.5 1.327 0.052
18:18 1008 29.77 838 24.75 0.9 33.7 84 -1.4 29.5 1.383 0.054
18:19 1009 29.8 838 24.75 1 33.8 84 -1.4 29.5 1.451 0.057
18:20 1009 29.8 838 24.75 1 33.8 84 -1.3 29.6 1.451 0.057
18:21 1009 29.8 838 24.75 1 33.9 85 -1.3 29.7 1.423 0.056
18:22 1009 29.8 838 24.75 1 33.8 86 -1.1 30 1.417 0.056
18:23 1009 29.8 838 24.75 1 33.8 85 -1.2 29.8 1.412 0.056
18:24 1009 29.8 838 24.75 0.9 33.7 86 -1.2 29.8 1.372 0.054
18:25 1009 29.8 838 24.75 0.9 33.6 85 -1.4 29.5 1.338 0.053
18:26 1009 29.8 838 24.75 0.8 33.5 84 -1.5 29.2 1.287 0.051
18:27 1009 29.8 838 24.75 0.9 33.6 84 -1.5 29.3 1.27 0.05
18:28 1009 29.8 838 24.75 0.9 33.6 84 -1.5 29.3 1.276 0.05
18:29 1009 29.8 838 24.75 0.9 33.6 83 -1.6 29.1 1.282 0.05
18:30 1009 29.8 838 24.75 0.9 33.6 83 -1.6 29.1 1.225 0.048
18:31 1009 29.8 838 24.75 0.9 33.6 83 -1.7 29 1.333 0.052
18:32 1009 29.8 838 24.75 0.9 33.7 83 -1.7 29 1.333 0.052
18:33 1009 29.8 838 24.75 1 33.8 83 -1.6 29 1.418 0.056
18:34 1009 29.8 838 24.75 1.1 34 82 -1.6 29.1 1.491 0.059
18:35 1009 29.8 838 24.75 1.2 34.1 82 -1.5 29.2 1.565 0.062
18:36 1009 29.8 838 24.75 1.2 34.2 82 -1.4 29.4 1.644 0.065
18:37 1009 29.8 838 24.75 1.3 34.3 82 -1.5 29.2 1.706 0.067
18:38 1009 29.8 838 24.75 1.4 34.5 82 -1.4 29.5 1.814 0.071
18:39 1009 29.8 838 24.75 1.4 34.6 82 -1.3 29.6 1.876 0.074
18:40 1009 29.8 838 24.75 1.5 34.7 83 -1.1 30 1.921 0.076
18:41 1009 29.8 838 24.75 1.5 34.8 83 -1.1 30 1.938 0.076
18:42 1009 29.8 838 24.75 1.5 34.8 83 -1.1 30 1.95 0.077
18:43 1009 29.8 838 24.75 1.6 34.9 83 -1 30.3 2.04 0.08
18:44 1009 29.8 838 24.75 1.7 35 82 -1.1 30 2.08 0.082
18:45 1009 29.8 838 24.75 1.7 35.1 82 -1.1 30.1 2.144 0.084
18:46 1009 29.8 838 24.75 1.8 35.2 81 -1.1 30 2.2 0.087
18:47 1009 29.8 838 24.75 1.8 35.2 73 -2.6 27.4 2.178 0.086
18:48 1009 29.8 838 24.75 1.9 35.4 69 -3.2 26.2 2.235 0.088
18:49 1009 29.8 838 24.75 2.1 35.7 68 -3.3 26.1 2.428 0.096
18:50 1009 29.8 838 24.75 2.2 36 66 -3.4 25.9 2.598 0.102
18:51 1009 29.8 838 24.75 2.4 36.3 61 -4.5 23.9 2.751 0.108
18:52 1009 29.8 838 24.75 2.5 36.5 66 -3.3 26.1 2.859 0.113
18:53 1009 29.8 838 24.75 2.4 36.4 66 -3.3 26 2.808 0.111
18:54 1009 29.8 838 24.75 2.3 36.1 70 -2.7 27.2 2.65 0.104
18:55 1009 29.8 838 24.75 2.1 35.7 71 -2.6 27.2 2.548 0.1
18:56 1009 29.8 839 24.78 2 35.5 60 -5 23 2.311 0.091
18:57 1009 29.8 839 24.78 2.1 35.8 61 -4.6 23.8 2.436 0.096
18:58 1009 29.8 838 24.75 2.2 35.9 59 -5.1 22.8 2.549 0.1
18:59 1009 29.8 838 24.75 2.2 35.9 63 -4.1 24.6 2.6 0.102
19:00 1009 29.8 839 24.78 2.1 35.9 63 -4.3 24.3 2.549 0.1
19:01 1009 29.8 839 24.78 2.1 35.7 71 -2.6 27.3 2.476 0.097
19:02 1009 29.8 839 24.78 1.9 35.4 69 -3.2 26.3 2.306 0.091
19:03 1010 29.83 839 24.78 1.7 35.1 69 -3.3 26 2.17 0.085
19:04 1010 29.83 839 24.78 1.6 34.9 64 -4.4 24.1 2.001 0.079
19:05 1010 29.83 839 24.78 1.5 34.7 64 -4.5 24 1.905 0.075
19:06 1010 29.83 839 24.78 1.4 34.5 66 -4.4 24.1 1.797 0.071
19:07 1010 29.83 839 24.78 1.3 34.4 66 -4.3 24.2 1.735 0.068
19:08 1010 29.83 839 24.78 1.3 34.3 67 -4.2 24.4 1.65 0.065
19:09 1010 29.83 839 24.78 1.2 34.1 69 -4 24.8 1.571 0.062
19:10 1010 29.83 839 24.78 1.1 34 68 -4.2 24.4 1.503 0.059
19:11 1010 29.83 839 24.78 1.1 33.9 69 -4 24.8 1.486 0.059
19:12 1010 29.83 839 24.78 1.1 33.9 70 -3.9 25 1.475 0.058
19:13 1010 29.83 839 24.78 1 33.8 71 -3.7 25.3 1.509 0.059
19:14 1010 29.83 839 24.78 1 33.9 73 -3.4 26 1.441 0.057
19:15 1010 29.83 839 24.78 0.9 33.7 72 -3.5 25.6 1.43 0.056
19:16 1010 29.83 839 24.78 0.9 33.7 72 -3.6 25.5 1.384 0.054
19:17 1010 29.83 839 24.78 0.9 33.7 72 -3.5 25.6 1.384 0.054
19:18 1010 29.83 839 24.78 0.9 33.7 72 -3.6 25.5 1.35 0.053
19:19 1010 29.83 839 24.78 1 33.7 70 -3.9 25 1.39 0.055
19:20 1010 29.83 839 24.78 1 33.8 72 -3.6 25.5 1.407 0.055
19:21 1010 29.83 839 24.78 1 33.9 72 -3.5 25.7 1.441 0.057
19:22 1010 29.83 839 24.78 1.1 33.9 71 -3.7 25.4 1.481 0.058
19:23 1010 29.83 839 24.78 1.1 33.9 71 -3.7 25.3 1.481 0.058
19:24 1010 29.83 839 24.78 1.1 34 70 -3.8 25.2 1.521 0.06
19:25 1010 29.83 839 24.78 1.2 34.1 69 -3.8 25.1 1.538 0.061
19:26 1010 29.83 839 24.78 1.2 34.1 71 -3.5 25.6 1.611 0.063
19:27 1010 29.83 839 24.78 1.2 34.1 69 -3.9 25 1.6 0.063
19:28 1010 29.83 839 24.78 1.3 34.3 68 -4 24.9 1.651 0.065
19:29 1010 29.83 839 24.78 1.3 34.4 67 -4 24.7 1.743 0.069
19:30 1010 29.83 839 24.78 1.4 34.5 67 -4.2 24.5 1.811 0.071
19:31 1010 29.83 839 24.78 1.4 34.5 66 -4.2 24.4 1.806 0.071
19:32 1010 29.83 839 24.78 1.5 34.6 67 -4.1 24.7 1.846 0.073
19:33 1010 29.83 839 24.78 1.5 34.6 64 -4.6 23.7 1.874 0.074
19:34 1010 29.83 839 24.78 1.6 34.8 64 -4.4 24 1.977 0.078
19:35 1010 29.83 839 24.78 1.6 34.8 62 -4.9 23.2 1.977 0.078
19:36 1010 29.83 839 24.78 1.6 34.9 64 -4.4 24.1 1.994 0.079
19:37 1010 29.83 839 24.78 1.6 34.9 66 -4.1 24.7 1.995 0.079
19:38 1010 29.83 839 24.78 1.6 34.8 63 -4.8 23.4 2.001 0.079
19:39 1010 29.83 839 24.78 1.7 35 62 -4.9 23.1 2.04 0.08
19:40 1010 29.83 839 24.78 1.7 35.1 63 -4.6 23.7 2.108 0.083
19:41 1010 29.83 839 24.78 1.7 35 64 -4.4 24.1 2.046 0.081
19:42 1010 29.83 839 24.78 1.6 34.9 65 -4.2 24.5 2.007 0.079
19:43 1010 29.83 839 24.78 1.5 34.7 66 -4.2 24.5 1.927 0.076
19:44 1010 29.83 839 24.78 1.5 34.7 63 -4.8 23.4 1.921 0.076
19:45 1010 29.83 839 24.78 1.6 35 64 -4.5 23.9 2.034 0.08
19:46 1010 29.83 839 24.78 1.6 34.9 65 -4.2 24.4 2.052 0.081
19:47 1010 29.83 839 24.78 1.6 34.9 64 -4.4 24.1 1.995 0.079
19:48 1010 29.83 839 24.78 1.6 34.8 63 -4.6 23.7 1.99 0.078
19:49 1010 29.83 839 24.78 1.6 34.9 65 -4.3 24.2 1.967 0.077
19:50 1010 29.83 839 24.78 1.6 34.8 65 -4.3 24.2 1.967 0.077
19:51 1010 29.83 839 24.78 1.6 34.8 64 -4.4 24 1.939 0.076
19:52 1010 29.83 839 24.78 1.6 34.8 62 -4.9 23.1 1.94 0.076
19:53 1010 29.83 839 24.78 1.7 35 62 -4.7 23.5 2.03 0.08
19:54 1010 29.83 839 24.78 1.7 35 62 -4.9 23.2 2.081 0.082
19:55 1010 29.83 839 24.78 1.7 35.1 62 -4.7 23.5 2.093 0.082
19:56 1010 29.83 839 24.78 1.8 35.2 62 -4.7 23.6 2.189 0.086
19:57 1010 29.83 839 24.78 1.8 35.3 63 -4.5 24 2.234 0.088
19:58 1010 29.83 839 24.78 1.8 35.3 63 -4.6 23.8 2.252 0.089
19:59 1010 29.83 839 24.78 1.8 35.2 66 -4 24.8 2.201 0.087
20:00 1010 29.83 839 24.78 1.6 35 65 -4.3 24.3 2.138 0.084
20:01 1010 29.83 839 24.78 1.5 34.8 65 -4.4 24.1 1.974 0.078
20:02 1010 29.83 839 24.78 1.5 34.7 64 -4.5 23.9 1.901 0.075
20:03 1010 29.83 839 24.78 1.5 34.7 63 -4.7 23.5 1.918 0.076
20:04 1010 29.83 839 24.78 1.5 34.7 63 -4.8 23.4 1.912 0.075
20:05 1010 29.83 839 24.78 1.6 34.9 64 -4.4 24.1 1.975 0.078
20:06 1010 29.83 839 24.78 1.6 34.8 65 -4.3 24.2 1.958 0.077
20:07 1010 29.83 839 24.78 1.5 34.7 66 -4.2 24.5 1.935 0.076
20:08 1010 29.83 839 24.78 1.4 34.6 68 -3.9 25 1.873 0.074
20:09 1010 29.83 839 24.78 1.3 34.4 69 -3.7 25.3 1.697 0.067
20:10 1010 29.83 839 24.78 1.2 34.1 70 -3.7 25.4 1.612 0.063
20:11 1010 29.83 839 24.78 1.1 33.9 72 -3.5 25.8 1.471 0.058
20:12 1010 29.83 839 24.78 0.9 33.7 73 -3.4 25.9 1.363 0.054
20:13 1010 29.83 839 24.78 0.8 33.5 74 -3.3 26.1 1.261 0.05
20:14 1010 29.83 839 24.78 0.7 33.3 74 -3.4 25.9 1.12 0.044
20:15 1010 29.83 839 24.78 0.6 33.1 75 -3.4 25.9 1.024 0.04
20:16 1010 29.83 839 24.78 0.6 33 75 -3.4 25.9 0.995 0.039
20:17 1010 29.83 839 24.78 0.6 33 74 -3.5 25.7 1.018 0.04
20:18 1010 29.83 839 24.78 0.7 33.2 74 -3.5 25.7 1.126 0.044
20:19 1010 29.83 839 24.78 0.8 33.4 74 -3.3 26 1.228 0.048
20:20 1010 29.83 839 24.78 0.8 33.5 74 -3.2 26.2 1.25 0.049
20:21 1010 29.83 839 24.78 0.8 33.4 74 -3.3 26.1 1.222 0.048
20:22 1010 29.83 839 24.78 0.7 33.3 75 -3.3 26.1 1.222 0.048
20:23 1010 29.83 839 24.78 0.7 33.2 74 -3.5 25.7 1.165 0.046
20:24 1010 29.83 839 24.78 0.7 33.3 73 -3.7 25.4 1.12 0.044
20:25 1010 29.83 839 24.78 0.7 33.3 72 -3.8 25.1 1.143 0.045
20:26 1010 29.83 839 24.78 0.7 33.2 70 -4.1 24.6 1.177 0.046
20:27 1010 29.83 839 24.78 0.8 33.4 70 -4.1 24.5 1.284 0.051
20:28 1010 29.83 839 24.78 0.9 33.6 70 -4.1 24.7 1.352 0.053
20:29 1010 29.83 839 24.78 0.9 33.6 70 -3.9 24.9 1.307 0.051
20:30 1010 29.83 839 24.78 0.9 33.5 70 -4.1 24.6 1.313 0.052
20:31 1010 29.83 839 24.78 0.9 33.6 70 -4.1 24.7 1.318 0.052
20:32 1010 29.83 839 24.78 0.9 33.6 70 -4 24.8 1.324 0.052
20:33 1010 29.83 839 24.78 0.8 33.5 70 -3.9 24.9 1.29 0.051
20:34 1010 29.83 839 24.78 0.8 33.5 71 -3.9 25.1 1.222 0.048
20:35 1010 29.83 839 24.78 0.8 33.4 71 -4 24.9 1.154 0.045
20:36 1010 29.83 839 24.78 0.7 33.3 70 -4.1 24.6 1.165 0.046
20:37 1010 29.83 839 24.78 0.7 33.3 70 -4.2 24.4 1.211 0.048
20:38 1010 29.83 839 24.78 0.8 33.4 69 -4.2 24.4 1.194 0.047
20:39 1010 29.83 839 24.78 0.8 33.5 69 -4.2 24.4 1.239 0.049
20:40 1010 29.83 839 24.78 0.9 33.6 68 -4.3 24.2 1.307 0.051
20:41 1010 29.83 839 24.78 0.9 33.6 68 -4.3 24.2 1.386 0.055
20:42 1010 29.83 839 24.78 1 33.7 68 -4.3 24.3 1.437 0.057
20:43 1010 29.83 839 24.78 1 33.8 69 -4 24.8 1.42 0.056
20:44 1010 29.83 840 24.81 0.9 33.6 70 -4 24.9 1.284 0.051
20:45 1010 29.83 840 24.81 0.8 33.4 71 -3.8 25.1 1.188 0.047
20:46 1010 29.83 840 24.81 0.7 33.3 72 -3.9 25 1.086 0.043
20:47 1010 29.83 840 24.81 0.6 33.1 72 -3.9 25 0.996 0.039
20:48 1010 29.83 840 24.81 0.5 33 72 -3.9 24.9 0.962 0.038
20:49 1010 29.83 840 24.81 0.5 32.9 72 -3.9 24.9 0.922 0.036
20:50 1010 29.83 840 24.81 0.4 32.8 72 -4 24.8 0.888 0.035
20:51 1010 29.83 840 24.81 0.4 32.8 72 -4 24.8 0.882 0.035
20:52 1010 29.83 840 24.81 0.4 32.8 72 -4 24.8 0.882 0.035
20:53 1010 29.83 840 24.81 0.4 32.8 72 -4 24.8 0.831 0.033
20:54 1010 29.83 840 24.81 0.4 32.7 72 -4.1 24.7 0.814 0.032
20:55 1010 29.83 840 24.81 0.4 32.8 72 -4 24.8 0.831 0.033
20:56 1010 29.83 840 24.81 0.4 32.7 72 -4.1 24.6 0.831 0.033
20:57 1010 29.83 840 24.81 0.4 32.6 72 -4.1 24.6 0.809 0.032
20:58 1010 29.83 840 24.81 0.3 32.6 72 -4.1 24.6 0.797 0.031
20:59 1010 29.83 840 24.81 0.3 32.5 72 -4.1 24.5 0.786 0.031
21:00 1010 29.83 840 24.81 0.2 32.4 72 -4.1 24.6 0.678 0.027
21:01 1010 29.83 840 24.81 0.2 32.4 73 -4.2 24.5 0.622 0.024
21:02 1010 29.83 840 24.81 -0 32 74 -4.2 24.5 0.526 0.021
21:03 1010 29.83 840 24.81 -0.2 31.7 75 -4.2 24.5 0.288 0.011
21:04 1010 29.83 840 24.81 -0.2 31.6 75 -4.1 24.5 0.18 0.007
21:05 1010 29.83 840 24.81 -0.2 31.6 75 -4.2 24.5 0.197 0.008
21:06 1010 29.83 840 24.81 -0.2 31.7 75 -4.2 24.5 0.203 0.008
21:07 1010 29.83 840 24.81 -0.2 31.7 74 -4.2 24.4 0.242 0.01
21:08 1010 29.83 840 24.81 -0.1 31.8 74 -4.2 24.4 0.299 0.012
21:09 1010 29.83 840 24.81 -0 32 74 -4.2 24.5 0.367 0.014
21:10 1010 29.83 840 24.81 0 32 73 -4.2 24.4 0.39 0.015
21:11 1010 29.83 840 24.81 -0 32 73 -4.3 24.3 0.407 0.016
21:12 1010 29.83 840 24.81 -0 31.9 73 -4.3 24.3 0.378 0.015
21:13 1010 29.83 840 24.81 -0 31.9 73 -4.3 24.2 0.378 0.015
21:14 1010 29.83 840 24.81 0 32.1 73 -4.3 24.2 0.43 0.017
21:15 1010 29.83 840 24.81 -0.1 31.9 73 -4.3 24.3 0.334 0.013
21:16 1010 29.83 840 24.81 -0.1 31.8 74 -4.2 24.4 0.3 0.012
21:17 1010 29.83 840 24.81 -0.1 31.8 74 -4.2 24.4 0.295 0.012
21:18 1010 29.83 840 24.81 -0.1 31.7 74 -4.2 24.4 0.256 0.01
21:19 1010 29.83 840 24.81 -0.1 31.9 74 -4.2 24.4 0.256 0.01
21:20 1010 29.83 840 24.81 -0 31.9 73 -4.4 24.1 0.285 0.011
21:21 1010 29.83 840 24.81 -0.1 31.8 73 -4.4 24.1 0.2 0.008
21:22 1010 29.83 840 24.81 -0.3 31.5 74 -4.5 24 0.002 0
21:23 1010 29.83 840 24.81 -0.5 31.1 75 -4.4 24.1 -0.229 -0.009
21:24 1010 29.83 840 24.81 -0.6 30.9 76 -4.4 24.1 -0.314 -0.012
21:25 1010 29.83 840 24.81 -0.5 31 76 -4.3 24.2 -0.309 -0.012
21:26 1010 29.83 840 24.81 -0.5 31.2 75 -4.3 24.2 -0.274 -0.011
21:27 1010 29.83 840 24.81 -0.4 31.2 75 -4.4 24.1 -0.257 -0.01
21:28 1011 29.85 840 24.81 -0.4 31.2 74 -4.5 23.8 -0.291 -0.011
21:29 1011 29.85 840 24.81 -0.7 30.8 74 -4.7 23.5 -0.544 -0.021
21:30 1011 29.85 840 24.81 -1 30.1 76 -4.8 23.3 -0.839 -0.033
21:31 1011 29.85 840 24.81 -1.4 29.5 77 -4.9 23.2 -1.082 -0.043
21:32 1011 29.85 840 24.81 -1.7 28.9 79 -4.9 23.1 -1.398 -0.055
21:33 1011 29.85 840 24.81 -2 28.5 80 -4.9 23.1 -1.647 -0.065
21:34 1011 29.85 840 24.81 -2.2 28.1 81 -5 22.9 -1.806 -0.071
21:35 1011 29.85 840 24.81 -2.4 27.7 82 -5.1 22.9 -2.014 -0.079
21:36 1011 29.85 840 24.81 -2.5 27.4 83 -5.1 22.8 -2.173 -0.086
21:37 1011 29.85 840 24.81 -2.6 27.2 84 -5 23 -2.218 -0.087
21:38 1011 29.85 840 24.81 -2.6 27.3 84 -5 23.1 -2.212 -0.087
21:39 1011 29.85 840 24.81 -2.6 27.3 84 -5 23 -2.2 -0.087
21:40 1011 29.85 840 24.81 -2.5 27.5 85 -4.7 23.5 -2.093 -0.082
21:41 1011 29.85 840 24.81 -2.2 28 82 -5 23.1 -1.883 -0.074
21:42 1011 29.85 840 24.81 -2.3 27.8 81 -5.1 22.8 -1.883 -0.074
21:43 1011 29.85 840 24.81 -2.4 27.7 81 -5.2 22.7 -2.024 -0.08
21:44 1011 29.85 840 24.81 -2.6 27.4 83 -5 22.9 -2.137 -0.084
21:45 1011 29.85 840 24.81 -2.6 27.3 84 -5 23 -2.216 -0.087
21:46 1011 29.85 840 24.81 -2.6 27.3 84 -5 23 -2.199 -0.087
21:47 1011 29.85 840 24.81 -2.6 27.3 85 -4.8 23.3 -2.176 -0.086
21:48 1011 29.85 840 24.81 -2.6 27.4 85 -4.8 23.3 -2.17 -0.085
21:49 1011 29.85 840 24.81 -2.5 27.5 86 -4.6 23.7 -2.136 -0.084
21:50 1011 29.85 840 24.81 -2.4 27.6 85 -4.6 23.7 -2.045 -0.081
21:51 1011 29.85 840 24.81 -2.3 27.8 84 -4.7 23.6 -2.011 -0.079
21:52 1011 29.85 840 24.81 -2.2 28.1 84 -4.5 23.8 -1.921 -0.076
21:53 1011 29.85 840 24.81 -2.1 28.2 82 -4.8 23.3 -1.864 -0.073
21:54 1011 29.85 840 24.81 -2.3 27.9 83 -4.8 23.4 -2.017 -0.079
21:55 1011 29.85 840 24.81 -2.3 27.8 85 -4.6 23.8 -1.988 -0.078
21:56 1011 29.85 840 24.81 -2.2 28 84 -4.5 23.9 -1.869 -0.074
21:57 1011 29.85 840 24.81 -2.1 28.3 83 -4.5 23.9 -1.75 -0.069
21:58 1011 29.85 840 24.81 -1.9 28.5 84 -4.3 24.2 -1.665 -0.066
21:59 1011 29.85 840 24.81 -1.8 28.7 83 -4.3 24.2 -1.563 -0.062
22:00 1011 29.85 840 24.81 -1.8 28.7 82 -4.4 24 -1.541 -0.061
22:01 1011 29.85 840 24.81 -1.9 28.6 83 -4.5 24 -1.574 -0.062
22:02 1011 29.85 840 24.81 -2 28.5 83 -4.5 23.9 -1.637 -0.064
22:03 1011 29.85 840 24.81 -2.1 28.2 84 -4.5 23.9 -1.75 -0.069
22:04 1011 29.85 840 24.81 -2.2 28 83 -4.7 23.6 -1.858 -0.073
22:05 1011 29.85 840 24.81 -2.3 27.8 85 -4.6 23.8 -1.993 -0.078
22:06 1011 29.85 840 24.81 -2.4 27.6 83 -4.9 23.2 -2.09 -0.082
22:07 1011 29.85 840 24.81 -2.6 27.2 83 -5.1 22.8 -2.321 -0.091
22:08 1011 29.85 840 24.81 -2.9 26.8 85 -5.1 22.8 -2.474 -0.097
22:09 1011 29.85 840 24.81 -3 26.6 86 -5 23 -2.564 -0.101
22:10 1011 29.85 840 24.81 -3 26.6 86 -5 22.9 -2.609 -0.103
22:11 1011 29.85 840 24.81 -3.1 26.5 86 -5.1 22.9 -2.705 -0.106
22:12 1011 29.85 840 24.81 -3.1 26.4 87 -4.9 23.2 -2.676 -0.105
22:13 1011 29.85 840 24.81 -3 26.5 88 -4.8 23.3 -2.647 -0.104
22:14 1011 29.85 840 24.81 -3 26.7 87 -4.8 23.3 -2.613 -0.103
22:15 1011 29.85 840 24.81 -2.9 26.7 87 -4.8 23.3 -2.591 -0.102
22:16 1011 29.85 840 24.81 -3 26.6 87 -4.8 23.3 -2.607 -0.103
22:17 1011 29.85 840 24.81 -3 26.6 87 -4.9 23.1 -2.635 -0.104
22:18 1011 29.85 840 24.81 -3 26.5 87 -4.9 23.3 -2.675 -0.105
22:19 1011 29.85 840 24.81 -3.1 26.5 87 -4.9 23.1 -2.697 -0.106
22:20 1011 29.85 840 24.81 -3.2 26.3 85 -5.3 22.5 -2.776 -0.109
22:21 1011 29.85 840 24.81 -3.4 25.9 84 -5.7 21.8 -3.048 -0.12
22:22 1011 29.85 840 24.81 -3.5 25.7 89 -5.1 22.8 -3.116 -0.123
22:23 1011 29.85 840 24.81 -3.3 26.1 88 -5 23 -2.867 -0.113
22:24 1011 29.85 840 24.81 -3.1 26.4 88 -4.8 23.4 -2.719 -0.107
22:25 1011 29.85 840 24.81 -2.6 27.2 87 -4.5 23.9 -2.322 -0.091
22:26 1011 29.85 840 24.81 -2 28.3 84 -4.4 24.1 -1.784 -0.07
22:27 1011 29.85 840 24.81 -1.5 29.3 81 -4.4 24.1 -1.291 -0.051
22:28 1011 29.85 840 24.81 -1 30.1 78 -4.4 24 -0.797 -0.031
22:29 1011 29.85 840 24.81 -0.6 30.9 75 -4.4 24 -0.394 -0.016
22:30 1011 29.85 840 24.81 -0.4 31.3 74 -4.5 24 -0.122 -0.005
22:31 1011 29.85 840 24.81 -0.3 31.5 73 -4.5 23.9 -0.008 -0
22:32 1011 29.85 840 24.81 -0.3 31.5 73 -4.5 24 0.089 0.004
22:33 1011 29.85 840 24.81 -0.2 31.6 73 -4.5 24 0.05 0.002
22:34 1011 29.85 840 24.81 -0.3 31.5 74 -4.4 24 0.016 0.001
22:35 1011 29.85 840 24.81 -0.4 31.2 74 -4.5 24 -0.154 -0.006
22:36 1011 29.85 840 24.81 -0.7 30.7 76 -4.5 23.9 -0.391 -0.015
22:37 1011 29.85 840 24.81 -0.9 30.3 77 -4.5 23.9 -0.538 -0.021
22:38 1011 29.85 840 24.81 -1.1 30.1 78 -4.5 23.9 -0.686 -0.027
22:39 1011 29.85 840 24.81 -1.2 29.9 78 -4.6 23.8 -0.782 -0.031
22:40 1011 29.85 840 24.81 -1.2 29.9 78 -4.5 24 -0.844 -0.033
22:41 1011 29.85 840 24.81 -1.2 29.9 78 -4.6 23.7 -0.844 -0.033
22:42 1011 29.85 840 24.81 -1.2 29.8 78 -4.7 23.6 -0.855 -0.034
22:43 1011 29.85 840 24.81 -1.5 29.4 77 -5.1 22.9 -1.053 -0.041
22:44 1011 29.85 840 24.81 -1.8 28.7 78 -5.1 22.7 -1.483 -0.058
22:45 1011 29.85 840 24.81 -2.2 28.1 79 -5.3 22.5 -1.812 -0.071
22:46 1011 29.85 840 24.81 -2.5 27.6 80 -5.4 22.2 -2.067 -0.081
22:47 1011 29.85 840 24.81 -2.7 27.1 81 -5.5 22.1 -2.344 -0.092
22:48 1011 29.85 840 24.81 -2.9 26.7 83 -5.4 22.2 -2.531 -0.1
22:49 1011 29.85 840 24.81 -3 26.6 84 -5.4 22.3 -2.548 -0.1
22:50 1011 29.85 840 24.81 -3 26.6 84 -5.4 22.4 -2.571 -0.101
22:51 1011 29.85 840 24.81 -2.9 26.7 84 -5.3 22.4 -2.542 -0.1
22:52 1011 29.85 840 24.81 -2.9 26.7 83 -5.5 22.2 -2.587 -0.102
22:53 1011 29.85 840 24.81 -3.1 26.5 83 -5.6 21.9 -2.701 -0.106
22:54 1011 29.85 840 24.81 -3.2 26.3 84 -5.5 22.2 -2.791 -0.11
22:55 1011 29.85 840 24.81 -3.1 26.3 86 -5.2 22.7 -2.752 -0.108
22:56 1011 29.85 840 24.81 -2.9 26.7 86 -5 23 -2.587 -0.102
22:57 1011 29.85 840 24.81 -2.8 27 85 -5 23 -2.394 -0.094
22:58 1011 29.85 840 24.81 -2.5 27.5 84 -4.8 23.3 -2.196 -0.086
22:59 1011 29.85 840 24.81 -2.3 27.9 83 -4.8 23.3 -1.969 -0.078
23:00 1011 29.85 840 24.81 -2.2 28.1 83 -4.7 23.5 -1.867 -0.074
23:01 1011 29.85 840 24.81 -2.2 28.1 82 -4.8 23.3 -1.85 -0.073
23:02 1011 29.85 840 24.81 -2.2 28.1 83 -4.7 23.5 -1.805 -0.071
23:03 1011 29.85 840 24.81 -2.1 28.2 82 -4.7 23.5 -1.725 -0.068
23:04 1011 29.85 840 24.81 -2 28.4 82 -4.7 23.5 -1.618 -0.064
23:05 1011 29.85 840 24.81 -1.9 28.5 81 -4.8 23.4 -1.589 -0.063
23:06 1011 29.85 840 24.81 -2 28.4 81 -4.8 23.3 -1.64 -0.065
23:07 1011 29.85 840 24.81 -2.1 28.3 81 -4.9 23.2 -1.663 -0.065
23:08 1011 29.85 840 24.81 -2.1 28.2 82 -4.9 23.2 -1.708 -0.067
23:09 1011 29.85 840 24.81 -2.1 28.2 80 -5 22.9 -1.748 -0.069
23:10 1011 29.85 840 24.81 -2.4 27.7 80 -5.4 22.3 -2.031 -0.08
23:11 1011 29.85 840 24.81 -2.6 27.4 83 -5.1 22.8 -2.196 -0.086
23:12 1011 29.85 840 24.81 -2.6 27.4 83 -5.1 22.8 -2.247 -0.088
23:13 1011 29.85 840 24.81 -2.5 27.5 83 -5 23 -2.145 -0.084
23:14 1011 29.85 840 24.81 -2.3 27.9 82 -5 23 -1.89 -0.074
23:15 1011 29.85 840 24.81 -2.1 28.3 81 -4.9 23.1 -1.731 -0.068
23:16 1011 29.85 840 24.81 -2 28.4 80 -4.9 23.1 -1.68 -0.066
23:17 1011 29.85 840 24.81 -2 28.4 80 -4.9 23.1 -1.64 -0.065
23:18 1011 29.85 840 24.81 -2 28.4 80 -5 23 -1.646 -0.065
23:19 1011 29.85 840 24.81 -2.1 28.2 80 -5.2 22.6 -1.765 -0.069
23:20 1011 29.85 840 24.81 -2.3 27.8 81 -5.2 22.6 -1.924 -0.076
23:21 1011 29.85 840 24.81 -2.5 27.5 82 -5.1 22.8 -2.082 -0.082
23:22 1011 29.85 840 24.81 -2.4 27.7 81 -5.2 22.6 -2.043 -0.08
23:23 1011 29.85 840 24.81 -2.3 27.8 80 -5.4 22.3 -2.043 -0.08
23:24 1011 29.85 840 24.81 -2.4 27.6 81 -5.3 22.4 -2.071 -0.082
23:25 1011 29.85 840 24.81 -2.4 27.7 80 -5.3 22.4 -1.986 -0.078
23:26 1011 29.85 840 24.81 -2.3 27.8 80 -5.3 22.4 -1.969 -0.078
23:27 1011 29.85 840 24.81 -2.3 27.9 79 -5.4 22.3 -1.935 -0.076
23:28 1011 29.85 840 24.81 -2.3 27.8 78 -5.6 21.9 -1.98 -0.078
23:29 1011 29.85 840 24.81 -2.5 27.4 79 -5.6 21.9 -2.144 -0.084
23:30 1011 29.85 840 24.81 -2.7 27.2 80 -5.7 21.8 -2.292 -0.09
23:31 1011 29.85 840 24.81 -2.8 27 80 -5.8 21.5 -2.354 -0.093
23:32 1011 29.85 840 24.81 -2.9 26.7 80 -5.9 21.4 -2.53 -0.1
23:33 1011 29.85 840 24.81 -3.2 26.3 81 -5.9 21.4 -2.711 -0.107
23:34 1011 29.85 840 24.81 -3.2 26.3 81 -6 21.3 -2.79 -0.11
23:35 1011 29.85 840 24.81 -3.4 25.9 82 -6.1 21.1 -2.966 -0.117
23:36 1011 29.85 840 24.81 -3.5 25.7 82 -6.2 20.8 -3.102 -0.122
23:37 1011 29.85 840 24.81 -3.5 25.7 84 -5.9 21.4 -3.091 -0.122
23:38 1011 29.85 840 24.81 -3.3 26 81 -6.2 20.8 -3.017 -0.119
23:39 1011 29.85 840 24.81 -3.4 25.9 80 -6.4 20.4 -3.006 -0.118
23:40 1011 29.85 840 24.81 -3.6 25.5 80 -6.6 20.2 -3.255 -0.128
23:41 1011 29.85 840 24.81 -3.8 25.1 81 -6.7 20 -3.465 -0.136
23:42 1011 29.85 840 24.81 -4 24.7 82 -6.7 20 -3.675 -0.145
23:43 1011 29.85 840 24.81 -4.1 24.6 83 -6.6 20.1 -3.703 -0.146
23:44 1011 29.85 840 24.81 -4.1 24.6 83 -6.6 20 -3.754 -0.148
23:45 1011 29.85 840 24.81 -4.2 24.5 83 -6.7 19.9 -3.782 -0.149
23:46 1011 29.85 840 24.81 -4.2 24.4 82 -6.8 19.8 -3.816 -0.15
23:47 1011 29.85 840 24.81 -4.4 24.2 84 -6.7 19.9 -3.964 -0.156
23:48 1011 29.85 840 24.81 -4.4 24.1 83 -6.9 19.5 -3.986 -0.157
23:49 1011 29.85 840 24.81 -4.5 23.9 83 -7 19.4 -4.083 -0.161
23:50 1011 29.85 840 24.81 -4.6 23.7 84 -6.9 19.5 -4.202 -0.165
23:51 1011 29.85 840 24.81 -4.6 23.7 84 -7 19.5 -4.258 -0.168
23:52 1011 29.85 840 24.81 -4.7 23.6 84 -6.9 19.5 -4.27 -0.168
23:53 1011 29.85 840 24.81 -4.7 23.6 83 -7.1 19.3 -4.275 -0.168
23:54 1011 29.85 840 24.81 -4.8 23.3 84 -7.1 19.2 -4.383 -0.173
23:55 1011 29.85 840 24.81 -4.8 23.3 86 -6.8 19.8 -4.417 -0.174
23:56 1011 29.85 840 24.81 -4.7 23.6 85 -6.8 19.7 -4.343 -0.171
23:57 1011 29.85 840 24.81 -4.7 23.6 84 -7 19.4 -4.349 -0.171
23:58 1011 29.85 840 24.81 -4.6 23.7 87 -6.5 20.4 -4.287 -0.169
23:59 1011 29.85 840 24.81 -4.3 24.2 84 -6.6 20.1 -4.071 -0.16
24:00 1011 29.85 840 24.81 -4.2 24.5 84 -6.4 20.4 -3.935 -0.155